Time,TemperatureF,DewpointF,PressureIn,WindDirection,WindDirectionDegrees,WindSpeedMPH,WindSpeedGustMPH,Humidity,HourlyPrecipIn,Conditions,Clouds,dailyrainin,SoftwareType,DateUTC
2013-06-13 00:00:00,56.3,53.7,29.91,SW,220,0.0,3.6,91,0.00,,---,0.51,VWS V14.01,2013-06-13 06:00:00,
2013-06-13 00:01:00,56.3,53.7,29.91,SW,217,2.7,2.7,91,0.00,,---,0.51,VWS V14.01,2013-06-13 06:01:00,
2013-06-13 00:05:00,56.3,53.7,29.91,SSW,207,0.0,2.7,91,0.00,,---,0.00,VWS V14.01,2013-06-13 06:05:00,
2013-06-13 00:06:00,56.3,53.7,29.91,SSW,207,0.0,2.7,91,0.00,,---,0.00,VWS V14.01,2013-06-13 06:06:00,
2013-06-13 00:10:00,56.1,53.8,29.91,SSW,207,0.0,2.7,92,0.00,,---,0.00,VWS V14.01,2013-06-13 06:10:00,
2013-06-13 00:11:00,56.1,53.8,29.91,SSW,207,0.0,2.7,92,0.00,,---,0.00,VWS V14.01,2013-06-13 06:11:00,
2013-06-13 00:15:00,56.1,53.8,29.91,SSW,207,0.0,2.7,92,0.00,,---,0.00,VWS V14.01,2013-06-13 06:15:00,
2013-06-13 00:16:00,55.9,53.7,29.91,SSW,207,0.0,0.0,92,0.00,,---,0.00,VWS V14.01,2013-06-13 06:16:00,
2013-06-13 00:17:00,55.9,53.7,29.91,SSW,207,0.0,0.0,92,0.00,,---,0.00,VWS V14.01,2013-06-13 06:17:00,
2013-06-13 00:20:00,55.9,53.4,29.91,SSW,207,0.0,0.0,91,0.00,,---,0.00,VWS V14.01,2013-06-13 06:20:00,
2013-06-13 00:21:00,55.9,53.4,29.91,SSW,207,0.0,0.0,91,0.00,,---,0.00,VWS V14.01,2013-06-13 06:21:00,
2013-06-13 00:22:00,55.9,53.4,29.91,SSW,207,0.0,0.0,91,0.00,,---,0.00,VWS V14.01,2013-06-13 06:22:00,
2013-06-13 00:25:00,55.9,53.7,29.91,SSW,207,0.0,0.0,92,0.00,,---,0.51,VWS V14.01,2013-06-13 06:25:00,
2013-06-13 00:26:00,55.9,53.7,29.91,SSW,207,0.0,0.0,92,0.00,,---,0.00,VWS V14.01,2013-06-13 06:26:00,
2013-06-13 00:27:00,55.8,53.5,29.91,SSW,207,0.0,0.0,92,0.00,,---,0.00,VWS V14.01,2013-06-13 06:27:00,
2013-06-13 00:28:00,55.8,53.5,29.91,SSW,207,0.0,0.0,92,0.00,,---,0.00,VWS V14.01,2013-06-13 06:28:00,
2013-06-13 00:30:00,55.8,53.5,29.91,SSW,207,0.0,0.0,92,0.00,,---,0.00,VWS V14.01,2013-06-13 06:30:00,
2013-06-13 00:31:00,55.6,53.0,29.91,SSW,207,0.0,0.0,91,0.00,,---,0.00,VWS V14.01,2013-06-13 06:31:00,
2013-06-13 00:32:00,55.6,53.0,29.91,SSW,207,0.0,0.0,91,0.00,,---,0.00,VWS V14.01,2013-06-13 06:32:00,
2013-06-13 00:33:00,55.6,53.0,29.91,SSW,207,0.0,0.0,91,0.00,,---,0.00,VWS V14.01,2013-06-13 06:33:00,
2013-06-13 00:35:00,55.2,52.9,29.91,SSW,207,0.0,0.0,92,0.00,,---,0.51,VWS V14.01,2013-06-13 06:35:00,
2013-06-13 00:36:00,55.2,52.9,29.91,SSW,207,0.0,0.0,92,0.00,,---,0.51,VWS V14.01,2013-06-13 06:36:00,
2013-06-13 00:37:00,55.2,52.9,29.91,SSW,207,0.0,0.0,92,0.00,,---,0.00,VWS V14.01,2013-06-13 06:37:00,
2013-06-13 00:38:00,55.0,52.5,29.91,SSW,207,0.0,0.0,91,0.00,,---,0.00,VWS V14.01,2013-06-13 06:38:00,
2013-06-13 00:41:00,54.9,52.3,29.91,SSW,207,0.0,0.0,91,0.00,,---,0.00,VWS V14.01,2013-06-13 06:41:00,
2013-06-13 00:42:00,54.7,52.1,29.91,SSW,207,0.0,0.0,91,0.00,,---,0.00,VWS V14.01,2013-06-13 06:42:00,
2013-06-13 00:43:00,54.7,52.1,29.91,SSW,207,0.0,0.0,91,0.00,,---,0.00,VWS V14.01,2013-06-13 06:43:00,
2013-06-13 00:46:00,54.5,51.9,29.91,SSW,207,0.0,0.0,91,0.00,,---,0.00,VWS V14.01,2013-06-13 06:46:00,
2013-06-13 00:47:00,54.5,51.9,29.91,SSW,207,0.0,0.0,91,0.00,,---,0.00,VWS V14.01,2013-06-13 06:47:00,
2013-06-13 00:48:00,54.5,51.9,29.91,SSW,207,0.0,0.0,91,0.00,,---,0.51,VWS V14.01,2013-06-13 06:48:00,
2013-06-13 00:49:00,54.5,51.9,29.91,SSW,207,0.0,0.0,91,0.00,,---,0.00,VWS V14.01,2013-06-13 06:49:00,
2013-06-13 00:51:00,54.5,52.2,29.91,SSW,207,0.0,0.0,92,0.00,,---,0.00,VWS V14.01,2013-06-13 06:51:00,
2013-06-13 00:52:00,54.5,52.2,29.91,SSW,207,0.0,0.0,92,0.00,,---,0.00,VWS V14.01,2013-06-13 06:52:00,
2013-06-13 00:53:00,54.5,52.2,29.91,SSW,207,0.0,0.0,92,0.00,,---,0.00,VWS V14.01,2013-06-13 06:53:00,
2013-06-13 00:54:00,54.3,52.0,29.91,SSW,207,0.0,0.0,92,0.00,,---,0.00,VWS V14.01,2013-06-13 06:54:00,
2013-06-13 00:56:00,54.3,52.0,29.91,SSW,207,0.0,0.0,92,0.00,,---,0.00,VWS V14.01,2013-06-13 06:56:00,
2013-06-13 00:57:00,54.3,52.0,29.91,SSW,207,0.0,0.0,92,0.00,,---,0.00,VWS V14.01,2013-06-13 06:57:00,
2013-06-13 00:58:00,54.3,52.0,29.91,SSW,207,0.0,0.0,92,0.00,,---,0.00,VWS V14.01,2013-06-13 06:58:00,
2013-06-13 00:59:00,54.3,52.0,29.91,SSW,207,0.0,0.0,92,0.00,,---,0.00,VWS V14.01,2013-06-13 06:59:00,
2013-06-13 01:01:00,54.3,52.0,29.91,SSW,207,0.0,0.0,92,0.00,,---,0.00,VWS V14.01,2013-06-13 07:01:00,
2013-06-13 01:02:00,54.3,52.0,29.91,SSW,207,0.0,0.0,92,0.00,,---,0.00,VWS V14.01,2013-06-13 07:02:00,
2013-06-13 01:03:00,54.3,52.0,29.91,SSW,207,0.0,0.0,92,0.00,,---,0.51,VWS V14.01,2013-06-13 07:03:00,
2013-06-13 01:04:00,54.3,52.0,29.91,SSW,207,0.0,0.0,92,0.00,,---,0.00,VWS V14.01,2013-06-13 07:04:00,
2013-06-13 01:06:00,54.3,52.0,29.91,SSW,207,0.0,0.0,92,0.00,,---,0.00,VWS V14.01,2013-06-13 07:06:00,
2013-06-13 01:08:00,54.3,52.0,29.91,SSW,207,0.0,0.0,92,0.00,,---,0.00,VWS V14.01,2013-06-13 07:08:00,
2013-06-13 01:09:00,54.1,51.9,29.91,SSW,207,0.0,0.0,92,0.00,,---,0.00,VWS V14.01,2013-06-13 07:09:00,
2013-06-13 01:11:00,54.0,51.7,29.91,SSW,207,0.0,0.0,92,0.00,,---,0.00,VWS V14.01,2013-06-13 07:11:00,
2013-06-13 01:13:00,54.0,51.7,29.91,SSW,207,0.0,0.0,92,0.00,,---,0.00,VWS V14.01,2013-06-13 07:13:00,
2013-06-13 01:14:00,54.0,51.7,29.91,SSW,207,0.0,0.0,92,0.00,,---,0.00,VWS V14.01,2013-06-13 07:14:00,
2013-06-13 01:17:00,54.0,51.7,29.91,SSW,207,0.0,0.0,92,0.00,,---,0.00,VWS V14.01,2013-06-13 07:17:00,
2013-06-13 01:18:00,54.0,51.7,29.91,SSW,207,0.0,0.0,92,0.00,,---,0.00,VWS V14.01,2013-06-13 07:18:00,
2013-06-13 01:19:00,54.0,51.7,29.91,SSW,207,0.0,0.0,92,0.00,,---,0.00,VWS V14.01,2013-06-13 07:19:00,
2013-06-13 01:22:00,54.1,52.2,29.91,SSW,207,0.0,0.0,93,0.00,,---,0.00,VWS V14.01,2013-06-13 07:22:00,
2013-06-13 01:23:00,54.3,52.3,29.91,SSW,207,0.0,0.0,93,0.00,,---,0.00,VWS V14.01,2013-06-13 07:23:00,
2013-06-13 01:24:00,54.3,52.3,29.91,SSW,207,0.0,0.0,93,0.00,,---,0.00,VWS V14.01,2013-06-13 07:24:00,
2013-06-13 01:25:00,54.3,52.3,29.91,SSW,207,0.0,0.0,93,0.00,,---,0.00,VWS V14.01,2013-06-13 07:25:00,
2013-06-13 01:27:00,54.3,52.3,29.91,SSW,207,0.0,0.0,93,0.00,,---,0.00,VWS V14.01,2013-06-13 07:27:00,
2013-06-13 01:28:00,54.3,52.3,29.91,SSW,207,0.0,0.0,93,0.00,,---,0.00,VWS V14.01,2013-06-13 07:28:00,
2013-06-13 01:29:00,54.3,52.3,29.91,SSW,207,0.0,0.0,93,0.00,,---,0.00,VWS V14.01,2013-06-13 07:29:00,
2013-06-13 01:30:00,54.3,52.3,29.91,SSW,207,0.0,0.0,93,0.00,,---,0.00,VWS V14.01,2013-06-13 07:30:00,
2013-06-13 01:31:00,54.3,52.3,29.91,SSW,207,0.0,0.0,93,0.00,,---,0.00,VWS V14.01,2013-06-13 07:31:00,
2013-06-13 01:32:00,54.5,52.5,29.91,SSW,207,0.0,0.0,93,0.00,,---,0.00,VWS V14.01,2013-06-13 07:32:00,
2013-06-13 01:33:00,54.5,52.5,29.91,SSW,207,0.0,0.0,93,0.00,,---,0.00,VWS V14.01,2013-06-13 07:33:00,
2013-06-13 01:34:00,54.5,52.5,29.91,SSW,207,0.0,0.0,93,0.00,,---,0.00,VWS V14.01,2013-06-13 07:34:00,
2013-06-13 01:35:00,54.3,52.3,29.91,SSW,207,0.0,0.0,93,0.00,,---,0.00,VWS V14.01,2013-06-13 07:35:00,
2013-06-13 01:36:00,54.3,52.3,29.91,SSW,207,0.0,0.0,93,0.00,,---,0.00,VWS V14.01,2013-06-13 07:36:00,
2013-06-13 01:38:00,54.3,52.3,29.91,SSW,207,0.0,0.0,93,0.00,,---,0.00,VWS V14.01,2013-06-13 07:38:00,
2013-06-13 01:39:00,54.3,52.3,29.91,SSW,207,0.0,0.0,93,0.00,,---,0.00,VWS V14.01,2013-06-13 07:39:00,
2013-06-13 01:40:00,54.3,52.3,29.91,SSW,207,0.0,0.0,93,0.00,,---,0.00,VWS V14.01,2013-06-13 07:40:00,
2013-06-13 01:41:00,54.3,52.3,29.91,SSW,207,0.0,0.0,93,0.00,,---,0.00,VWS V14.01,2013-06-13 07:41:00,
2013-06-13 01:43:00,54.3,52.3,29.91,SSW,207,0.0,0.0,93,0.00,,---,0.00,VWS V14.01,2013-06-13 07:43:00,
2013-06-13 01:44:00,54.3,52.3,29.91,SSW,207,0.0,0.0,93,0.00,,---,0.00,VWS V14.01,2013-06-13 07:44:00,
2013-06-13 01:45:00,54.3,52.3,29.91,SSW,207,0.0,0.0,93,0.00,,---,0.00,VWS V14.01,2013-06-13 07:45:00,
2013-06-13 01:46:00,54.3,52.3,29.91,SSW,207,0.0,2.2,93,0.00,,---,0.00,VWS V14.01,2013-06-13 07:46:00,
2013-06-13 01:48:00,54.3,52.3,29.91,SSW,207,0.0,2.7,93,0.00,,---,0.00,VWS V14.01,2013-06-13 07:48:00,
2013-06-13 01:49:00,54.3,52.3,29.91,SSW,207,2.7,2.7,93,0.00,,---,0.00,VWS V14.01,2013-06-13 07:49:00,
2013-06-13 01:51:00,54.3,52.3,29.91,SSW,207,2.7,2.7,93,0.00,,---,0.00,VWS V14.01,2013-06-13 07:51:00,
2013-06-13 01:53:00,54.3,52.3,29.91,SSW,207,0.0,2.7,93,0.00,,---,0.00,VWS V14.01,2013-06-13 07:53:00,
2013-06-13 01:54:00,54.3,52.3,29.91,SSW,207,0.0,2.7,93,0.00,,---,0.00,VWS V14.01,2013-06-13 07:54:00,
2013-06-13 01:55:00,54.3,52.3,29.91,SSW,207,0.0,2.7,93,0.00,,---,0.00,VWS V14.01,2013-06-13 07:55:00,
2013-06-13 01:56:00,54.3,52.3,29.91,SSW,207,0.0,2.7,93,0.00,,---,0.00,VWS V14.01,2013-06-13 07:56:00,
2013-06-13 01:59:00,54.3,52.3,29.91,SSW,207,0.0,2.7,93,0.00,,---,0.00,VWS V14.01,2013-06-13 07:59:00,
2013-06-13 02:00:00,54.3,52.3,29.91,SSW,207,0.0,0.0,93,0.00,,---,0.00,VWS V14.01,2013-06-13 08:00:00,
2013-06-13 02:01:00,54.3,52.3,29.91,SSW,207,0.0,0.0,93,0.00,,---,0.00,VWS V14.01,2013-06-13 08:01:00,
2013-06-13 02:04:00,54.5,52.5,29.91,SSW,207,0.0,0.0,93,0.00,,---,0.00,VWS V14.01,2013-06-13 08:04:00,
2013-06-13 02:05:00,54.5,52.5,29.91,SSW,207,0.0,0.0,93,0.00,,---,0.00,VWS V14.01,2013-06-13 08:05:00,
2013-06-13 02:06:00,54.3,52.3,29.91,SSW,207,0.0,0.0,93,0.00,,---,0.00,VWS V14.01,2013-06-13 08:06:00,
2013-06-13 02:09:00,54.5,52.5,29.91,SSW,207,0.0,0.0,93,0.00,,---,0.00,VWS V14.01,2013-06-13 08:09:00,
2013-06-13 02:10:00,54.5,52.5,29.91,SSW,207,0.0,0.0,93,0.00,,---,0.00,VWS V14.01,2013-06-13 08:10:00,
2013-06-13 02:11:00,54.5,52.5,29.91,SSW,207,0.0,2.2,93,0.00,,---,0.00,VWS V14.01,2013-06-13 08:11:00,
2013-06-13 02:14:00,54.7,52.7,29.91,South,171,0.0,2.7,93,0.00,,---,0.00,VWS V14.01,2013-06-13 08:14:00,
2013-06-13 02:15:00,54.7,52.7,29.91,SSW,194,2.7,2.7,93,0.00,,---,0.00,VWS V14.01,2013-06-13 08:15:00,
2013-06-13 02:16:00,54.7,52.7,29.91,South,188,4.0,4.0,93,0.00,,---,0.00,VWS V14.01,2013-06-13 08:16:00,
2013-06-13 02:19:00,55.0,53.3,29.91,SSW,202,0.0,4.0,94,0.00,,---,0.00,VWS V14.01,2013-06-13 08:19:00,
2013-06-13 02:20:00,55.0,53.3,29.91,SSW,202,0.0,4.0,94,0.00,,---,0.00,VWS V14.01,2013-06-13 08:20:00,
2013-06-13 02:21:00,55.0,53.3,29.91,SSW,202,2.7,4.0,94,0.00,,---,0.00,VWS V14.01,2013-06-13 08:21:00,
2013-06-13 02:22:00,55.0,53.3,29.91,SSW,202,3.1,4.0,94,0.00,,---,0.51,VWS V14.01,2013-06-13 08:22:00,
2013-06-13 02:25:00,55.2,53.5,29.91,SSW,198,0.0,4.0,94,0.00,,---,0.00,VWS V14.01,2013-06-13 08:25:00,
2013-06-13 02:27:00,55.2,53.5,29.91,SSW,199,0.0,4.0,94,0.00,,---,0.00,VWS V14.01,2013-06-13 08:27:00,
2013-06-13 02:30:00,55.2,53.5,29.91,SSW,199,0.0,0.0,94,0.00,,---,0.00,VWS V14.01,2013-06-13 08:30:00,
2013-06-13 02:32:00,55.2,53.5,29.91,SSW,199,0.0,0.0,94,0.00,,---,0.00,VWS V14.01,2013-06-13 08:32:00,
2013-06-13 02:35:00,55.4,53.7,29.91,SSW,198,0.0,2.2,94,0.00,,---,0.00,VWS V14.01,2013-06-13 08:35:00,
2013-06-13 02:36:00,55.4,53.7,29.91,SSW,198,0.0,2.2,94,0.00,,---,0.00,VWS V14.01,2013-06-13 08:36:00,
2013-06-13 02:37:00,55.4,53.7,29.91,SSW,198,0.0,2.2,94,0.00,,---,0.00,VWS V14.01,2013-06-13 08:37:00,
2013-06-13 02:41:00,55.4,53.7,29.91,SSW,194,0.0,3.6,94,0.00,,---,0.00,VWS V14.01,2013-06-13 08:41:00,
2013-06-13 02:42:00,55.6,53.9,29.91,SSW,194,0.0,3.6,94,0.00,,---,0.00,VWS V14.01,2013-06-13 08:42:00,
2013-06-13 02:46:00,55.6,53.9,29.91,SSW,194,0.0,0.0,94,0.00,,---,0.00,VWS V14.01,2013-06-13 08:46:00,
2013-06-13 02:47:00,55.6,53.9,29.91,SSW,194,0.0,0.0,94,0.00,,---,0.00,VWS V14.01,2013-06-13 08:47:00,
2013-06-13 02:51:00,55.2,53.5,29.91,SSW,194,0.0,0.0,94,0.00,,---,0.00,VWS V14.01,2013-06-13 08:51:00,
2013-06-13 02:52:00,55.2,53.5,29.91,SSW,194,0.0,0.0,94,0.00,,---,0.00,VWS V14.01,2013-06-13 08:52:00,
2013-06-13 02:56:00,55.0,53.3,29.91,SSW,194,0.0,0.0,94,0.00,,---,0.51,VWS V14.01,2013-06-13 08:56:00,
2013-06-13 02:58:00,54.9,53.2,29.91,SSW,194,0.0,0.0,94,0.00,,---,0.00,VWS V14.01,2013-06-13 08:58:00,
2013-06-13 03:01:00,54.7,53.0,29.91,SSW,194,0.0,0.0,94,0.00,,---,0.51,VWS V14.01,2013-06-13 09:01:00,
2013-06-13 03:02:00,54.7,53.0,29.91,SSW,194,0.0,0.0,94,0.00,,---,0.51,VWS V14.01,2013-06-13 09:02:00,
2013-06-13 03:03:00,54.7,53.0,29.91,SSW,194,0.0,0.0,94,0.00,,---,0.51,VWS V14.01,2013-06-13 09:03:00,
2013-06-13 03:07:00,54.7,53.0,29.91,SSW,194,0.0,0.0,94,0.00,,---,0.00,VWS V14.01,2013-06-13 09:07:00,
2013-06-13 03:08:00,54.7,53.0,29.91,SSW,194,0.0,0.0,94,0.00,,---,0.51,VWS V14.01,2013-06-13 09:08:00,
2013-06-13 03:09:00,54.7,53.0,29.91,SSW,194,0.0,0.0,94,0.00,,---,0.51,VWS V14.01,2013-06-13 09:09:00,
2013-06-13 03:12:00,54.5,52.5,29.91,SSW,194,0.0,0.0,93,0.00,,---,0.51,VWS V14.01,2013-06-13 09:12:00,
2013-06-13 03:13:00,54.5,52.5,29.91,SSW,194,0.0,0.0,93,0.00,,---,0.00,VWS V14.01,2013-06-13 09:13:00,
2013-06-13 03:14:00,54.5,52.5,29.91,SSW,194,0.0,0.0,93,0.00,,---,0.51,VWS V14.01,2013-06-13 09:14:00,
2013-06-13 03:17:00,54.3,52.3,29.91,SSW,194,0.0,0.0,93,0.00,,---,0.00,VWS V14.01,2013-06-13 09:17:00,
2013-06-13 03:18:00,54.3,52.3,29.91,SSW,194,0.0,0.0,93,0.00,,---,0.51,VWS V14.01,2013-06-13 09:18:00,
2013-06-13 03:19:00,54.3,52.3,29.91,SSW,194,0.0,0.0,93,0.00,,---,0.51,VWS V14.01,2013-06-13 09:19:00,
2013-06-13 03:23:00,54.1,52.2,29.91,SSW,194,0.0,0.0,93,0.00,,---,0.51,VWS V14.01,2013-06-13 09:23:00,
2013-06-13 03:24:00,54.1,52.2,29.91,SSW,194,0.0,0.0,93,0.00,,---,0.51,VWS V14.01,2013-06-13 09:24:00,
2013-06-13 03:25:00,54.1,52.2,29.91,SSW,194,0.0,0.0,93,0.00,,---,0.51,VWS V14.01,2013-06-13 09:25:00,
2013-06-13 03:28:00,54.1,52.2,29.91,SSW,194,0.0,0.0,93,0.00,,---,0.00,VWS V14.01,2013-06-13 09:28:00,
2013-06-13 03:29:00,54.1,52.2,29.91,SSW,194,0.0,0.0,93,0.00,,---,0.51,VWS V14.01,2013-06-13 09:29:00,
2013-06-13 03:30:00,54.3,52.3,29.91,SSW,194,0.0,0.0,93,0.00,,---,0.00,VWS V14.01,2013-06-13 09:30:00,
2013-06-13 03:33:00,54.3,52.6,29.91,SSW,194,0.0,0.0,94,0.00,,---,0.00,VWS V14.01,2013-06-13 09:33:00,
2013-06-13 03:34:00,54.3,52.6,29.91,SSW,194,0.0,0.0,94,0.00,,---,0.00,VWS V14.01,2013-06-13 09:34:00,
2013-06-13 03:36:00,54.3,52.6,29.91,SSW,194,0.0,0.0,94,0.00,,---,0.00,VWS V14.01,2013-06-13 09:36:00,
2013-06-13 03:38:00,54.3,52.6,29.91,SSW,194,0.0,0.0,94,0.00,,---,0.00,VWS V14.01,2013-06-13 09:38:00,
2013-06-13 03:39:00,54.3,52.6,29.91,SSW,194,0.0,0.0,94,0.00,,---,0.00,VWS V14.01,2013-06-13 09:39:00,
2013-06-13 03:41:00,54.3,52.6,29.91,SSW,194,0.0,0.0,94,0.00,,---,0.00,VWS V14.01,2013-06-13 09:41:00,
2013-06-13 03:43:00,54.3,52.6,29.91,SSW,194,2.7,2.7,94,0.00,,---,0.00,VWS V14.01,2013-06-13 09:43:00,
2013-06-13 03:44:00,54.3,52.6,29.91,SSW,194,2.2,2.7,94,0.00,,---,0.00,VWS V14.01,2013-06-13 09:44:00,
2013-06-13 03:46:00,54.5,52.8,29.91,SSW,192,2.7,2.7,94,0.00,,---,0.00,VWS V14.01,2013-06-13 09:46:00,
2013-06-13 03:48:00,54.5,52.8,29.91,SSW,192,0.0,3.1,94,0.00,,---,0.00,VWS V14.01,2013-06-13 09:48:00,
2013-06-13 03:49:00,54.5,52.8,29.91,SSW,192,0.0,3.1,94,0.00,,---,0.00,VWS V14.01,2013-06-13 09:49:00,
2013-06-13 03:51:00,54.7,53.0,29.91,SSW,192,0.0,3.1,94,0.00,,---,0.00,VWS V14.01,2013-06-13 09:51:00,
2013-06-13 03:53:00,54.5,52.8,29.91,SSW,192,0.0,3.1,94,0.00,,---,0.51,VWS V14.01,2013-06-13 09:53:00,
2013-06-13 03:54:00,54.5,52.8,29.91,SSW,192,0.0,3.1,94,0.00,,---,0.00,VWS V14.01,2013-06-13 09:54:00,
2013-06-13 03:55:00,54.5,52.8,29.91,SSW,192,0.0,3.1,94,0.00,,---,0.00,VWS V14.01,2013-06-13 09:55:00,
2013-06-13 03:57:00,54.3,52.6,29.91,South,191,0.0,3.1,94,0.00,,---,0.00,VWS V14.01,2013-06-13 09:57:00,
2013-06-13 03:58:00,54.3,52.3,29.91,South,191,0.0,3.1,93,0.00,,---,0.00,VWS V14.01,2013-06-13 09:58:00,
2013-06-13 04:00:00,54.3,52.3,29.91,South,191,0.0,3.1,93,0.00,,---,0.51,VWS V14.01,2013-06-13 10:00:00,
2013-06-13 04:02:00,54.3,52.3,29.91,South,191,0.0,0.0,93,0.00,,---,0.00,VWS V14.01,2013-06-13 10:02:00,
2013-06-13 04:03:00,54.3,52.3,29.91,South,191,0.0,0.0,93,0.00,,---,0.00,VWS V14.01,2013-06-13 10:03:00,
2013-06-13 04:05:00,54.3,52.3,29.91,South,191,0.0,0.0,93,0.00,,---,0.00,VWS V14.01,2013-06-13 10:05:00,
2013-06-13 04:07:00,54.3,52.3,29.91,South,191,0.0,0.0,93,0.00,,---,0.00,VWS V14.01,2013-06-13 10:07:00,
2013-06-13 04:09:00,54.3,52.3,29.91,South,191,0.0,0.0,93,0.00,,---,0.00,VWS V14.01,2013-06-13 10:09:00,
2013-06-13 04:10:00,54.3,52.3,29.91,South,191,0.0,0.0,93,0.00,,---,0.00,VWS V14.01,2013-06-13 10:10:00,
2013-06-13 04:12:00,54.3,52.3,29.91,SSW,206,0.0,2.7,93,0.00,,---,0.00,VWS V14.01,2013-06-13 10:12:00,
2013-06-13 04:14:00,54.1,52.2,29.91,SSW,206,0.0,2.7,93,0.00,,---,0.00,VWS V14.01,2013-06-13 10:14:00,
2013-06-13 04:15:00,54.1,52.2,29.91,SSW,206,0.0,0.0,93,0.00,,---,0.00,VWS V14.01,2013-06-13 10:15:00,
2013-06-13 04:18:00,54.0,52.0,29.91,SSW,206,0.0,0.0,93,0.00,,---,0.00,VWS V14.01,2013-06-13 10:18:00,
2013-06-13 04:19:00,54.0,52.0,29.91,SSW,206,0.0,0.0,93,0.00,,---,0.00,VWS V14.01,2013-06-13 10:19:00,
2013-06-13 04:20:00,53.8,51.5,29.91,SSW,206,2.2,2.2,92,0.00,,---,0.00,VWS V14.01,2013-06-13 10:20:00,
2013-06-13 04:21:00,53.8,51.5,29.91,SSW,206,0.0,2.2,92,0.00,,---,0.00,VWS V14.01,2013-06-13 10:21:00,
2013-06-13 04:23:00,53.6,51.3,29.91,SSW,206,0.0,2.2,92,0.00,,---,0.00,VWS V14.01,2013-06-13 10:23:00,
2013-06-13 04:24:00,53.4,51.5,29.91,SSW,206,0.0,2.2,93,0.00,,---,0.00,VWS V14.01,2013-06-13 10:24:00,
2013-06-13 04:25:00,53.2,51.0,29.91,SSW,206,0.0,2.2,92,0.00,,---,0.51,VWS V14.01,2013-06-13 10:25:00,
2013-06-13 04:26:00,53.2,51.0,29.91,SSW,206,0.0,2.2,92,0.00,,---,0.00,VWS V14.01,2013-06-13 10:26:00,
2013-06-13 04:28:00,53.1,50.8,29.91,SSW,206,0.0,2.2,92,0.00,,---,0.00,VWS V14.01,2013-06-13 10:28:00,
2013-06-13 04:29:00,53.1,50.8,29.91,SSW,206,0.0,2.2,92,0.00,,---,0.00,VWS V14.01,2013-06-13 10:29:00,
2013-06-13 04:30:00,53.1,50.8,29.91,SSW,206,0.0,0.0,92,0.00,,---,0.00,VWS V14.01,2013-06-13 10:30:00,
2013-06-13 04:31:00,52.9,50.6,29.91,SSW,206,0.0,0.0,92,0.00,,---,0.00,VWS V14.01,2013-06-13 10:31:00,
2013-06-13 04:33:00,52.9,50.6,29.88,SSW,206,0.0,0.0,92,0.00,,---,0.00,VWS V14.01,2013-06-13 10:33:00,
2013-06-13 04:34:00,52.7,50.5,29.88,SSW,206,0.0,0.0,92,0.00,,---,0.00,VWS V14.01,2013-06-13 10:34:00,
2013-06-13 04:35:00,52.7,50.5,29.88,SSW,206,0.0,0.0,92,0.00,,---,0.00,VWS V14.01,2013-06-13 10:35:00,
2013-06-13 04:36:00,52.5,50.3,29.88,SSW,206,0.0,0.0,92,0.00,,---,0.51,VWS V14.01,2013-06-13 10:36:00,
2013-06-13 04:39:00,52.3,50.1,29.88,SSW,206,0.0,0.0,92,0.00,,---,0.00,VWS V14.01,2013-06-13 10:39:00,
2013-06-13 04:40:00,52.3,50.1,29.88,SSW,205,2.7,3.6,92,0.00,,---,0.00,VWS V14.01,2013-06-13 10:40:00,
2013-06-13 04:41:00,52.3,50.1,29.88,SSW,205,0.0,3.6,92,0.00,,---,0.00,VWS V14.01,2013-06-13 10:41:00,
2013-06-13 04:44:00,52.3,50.1,29.88,SSW,205,0.0,3.6,92,0.00,,---,0.00,VWS V14.01,2013-06-13 10:44:00,
2013-06-13 04:45:00,52.3,50.1,29.88,SSW,205,0.0,0.0,92,0.00,,---,0.51,VWS V14.01,2013-06-13 10:45:00,
2013-06-13 04:46:00,52.3,50.1,29.88,SSW,205,0.0,0.0,92,0.00,,---,0.00,VWS V14.01,2013-06-13 10:46:00,
2013-06-13 04:49:00,52.2,49.9,29.88,SSW,205,0.0,0.0,92,0.00,,---,0.00,VWS V14.01,2013-06-13 10:49:00,
2013-06-13 04:50:00,52.2,49.9,29.88,SSW,205,0.0,0.0,92,0.00,,---,0.00,VWS V14.01,2013-06-13 10:50:00,
2013-06-13 04:51:00,52.2,49.9,29.88,SSW,205,0.0,0.0,92,0.00,,---,0.00,VWS V14.01,2013-06-13 10:51:00,
2013-06-13 04:55:00,51.8,49.5,29.88,SSW,205,0.0,0.0,92,0.00,,---,0.00,VWS V14.01,2013-06-13 10:55:00,
2013-06-13 04:56:00,51.8,49.5,29.88,SSW,205,0.0,0.0,92,0.00,,---,0.00,VWS V14.01,2013-06-13 10:56:00,
2013-06-13 04:57:00,51.8,49.5,29.88,SSW,205,0.0,0.0,92,0.00,,---,0.00,VWS V14.01,2013-06-13 10:57:00,
2013-06-13 05:00:00,51.6,49.4,29.88,SSW,205,2.2,2.2,92,0.00,,---,0.00,VWS V14.01,2013-06-13 11:00:00,
2013-06-13 05:01:00,51.6,49.4,29.88,SSW,205,2.2,2.2,92,0.00,,---,0.00,VWS V14.01,2013-06-13 11:01:00,
2013-06-13 05:02:00,51.6,49.4,29.88,SSW,205,0.0,2.2,92,0.00,,---,0.00,VWS V14.01,2013-06-13 11:02:00,
2013-06-13 05:05:00,51.4,49.2,29.88,SSW,205,0.0,2.2,92,0.00,,---,0.00,VWS V14.01,2013-06-13 11:05:00,
2013-06-13 05:06:00,51.4,49.2,29.88,SSW,205,0.0,2.2,92,0.00,,---,0.00,VWS V14.01,2013-06-13 11:06:00,
2013-06-13 05:07:00,51.4,49.2,29.88,SSW,205,0.0,2.2,92,0.00,,---,0.00,VWS V14.01,2013-06-13 11:07:00,
2013-06-13 05:10:00,51.3,49.0,29.88,SSW,205,2.2,2.2,92,0.00,,---,0.00,VWS V14.01,2013-06-13 11:10:00,
2013-06-13 05:11:00,51.3,49.0,29.88,SSW,205,0.0,2.2,92,0.00,,---,0.00,VWS V14.01,2013-06-13 11:11:00,
2013-06-13 05:12:00,51.1,48.8,29.88,SSW,198,2.2,3.6,92,0.00,,---,0.00,VWS V14.01,2013-06-13 11:12:00,
2013-06-13 05:15:00,51.1,48.8,29.88,SSW,198,0.0,0.0,92,0.00,,---,0.51,VWS V14.01,2013-06-13 11:15:00,
2013-06-13 05:16:00,51.1,48.8,29.88,SSW,198,0.0,0.0,92,0.00,,---,0.00,VWS V14.01,2013-06-13 11:16:00,
2013-06-13 05:17:00,51.1,48.8,29.88,South,186,0.0,0.0,92,0.00,,---,0.00,VWS V14.01,2013-06-13 11:17:00,
2013-06-13 05:18:00,51.1,48.8,29.88,South,182,2.7,2.7,92,0.00,,---,0.00,VWS V14.01,2013-06-13 11:18:00,
2013-06-13 05:20:00,51.1,48.8,29.88,South,189,0.0,3.6,92,0.00,,---,0.00,VWS V14.01,2013-06-13 11:20:00,
2013-06-13 05:22:00,51.1,48.8,29.88,South,189,0.0,3.6,92,0.00,,---,0.00,VWS V14.01,2013-06-13 11:22:00,
2013-06-13 05:23:00,51.1,49.1,29.88,South,189,0.0,3.6,93,0.00,,---,0.00,VWS V14.01,2013-06-13 11:23:00,
2013-06-13 05:25:00,51.1,49.1,29.88,South,189,2.2,3.6,93,0.00,,---,0.00,VWS V14.01,2013-06-13 11:25:00,
2013-06-13 05:27:00,51.1,49.1,29.88,South,189,0.0,3.6,93,0.00,,---,0.00,VWS V14.01,2013-06-13 11:27:00,
2013-06-13 05:28:00,51.1,49.1,29.88,South,189,0.0,3.6,93,0.00,,---,0.00,VWS V14.01,2013-06-13 11:28:00,
2013-06-13 05:30:00,50.9,49.0,29.88,South,189,0.0,0.0,93,0.00,,---,0.00,VWS V14.01,2013-06-13 11:30:00,
2013-06-13 05:32:00,50.9,49.0,29.88,South,189,0.0,0.0,93,0.00,,---,0.00,VWS V14.01,2013-06-13 11:32:00,
2013-06-13 05:33:00,50.7,48.8,29.88,South,189,0.0,0.0,93,0.00,,---,0.00,VWS V14.01,2013-06-13 11:33:00,
2013-06-13 05:36:00,50.7,48.5,29.88,South,189,0.0,0.0,92,0.00,,---,0.00,VWS V14.01,2013-06-13 11:36:00,
2013-06-13 05:37:00,50.7,48.5,29.88,South,189,0.0,0.0,92,0.00,,---,0.00,VWS V14.01,2013-06-13 11:37:00,
2013-06-13 05:39:00,50.5,48.3,29.88,South,189,0.0,0.0,92,0.00,,---,0.00,VWS V14.01,2013-06-13 11:39:00,
2013-06-13 05:40:00,50.5,48.3,29.88,South,189,0.0,0.0,92,0.00,,---,0.00,VWS V14.01,2013-06-13 11:40:00,
2013-06-13 05:42:00,50.5,48.3,29.88,South,189,0.0,0.0,92,0.00,,---,0.51,VWS V14.01,2013-06-13 11:42:00,
2013-06-13 05:43:00,50.5,48.3,29.88,South,189,0.0,0.0,92,0.00,,---,0.00,VWS V14.01,2013-06-13 11:43:00,
2013-06-13 05:44:00,50.5,48.3,29.88,South,189,0.0,0.0,92,0.00,,---,0.51,VWS V14.01,2013-06-13 11:44:00,
2013-06-13 05:45:00,50.5,48.6,29.88,South,189,0.0,0.0,93,0.00,,---,0.00,VWS V14.01,2013-06-13 11:45:00,
2013-06-13 05:47:00,50.5,48.6,29.88,South,189,0.0,0.0,93,0.00,,---,0.00,VWS V14.01,2013-06-13 11:47:00,
2013-06-13 05:48:00,50.5,48.6,29.88,South,189,0.0,0.0,93,0.00,,---,0.00,VWS V14.01,2013-06-13 11:48:00,
2013-06-13 05:49:00,50.5,48.6,29.88,South,189,0.0,0.0,93,0.00,,---,0.51,VWS V14.01,2013-06-13 11:49:00,
2013-06-13 05:51:00,50.5,48.6,29.88,South,189,0.0,0.0,93,0.00,,---,0.00,VWS V14.01,2013-06-13 11:51:00,
2013-06-13 05:53:00,50.5,48.6,29.88,South,189,0.0,0.0,93,0.00,,---,0.00,VWS V14.01,2013-06-13 11:53:00,
2013-06-13 05:54:00,50.5,48.6,29.88,South,189,0.0,0.0,93,0.00,,---,0.00,VWS V14.01,2013-06-13 11:54:00,
2013-06-13 05:56:00,50.5,48.6,29.88,South,189,0.0,0.0,93,0.00,,---,0.00,VWS V14.01,2013-06-13 11:56:00,
2013-06-13 05:58:00,50.5,48.6,29.88,South,189,0.0,0.0,93,0.00,,---,0.00,VWS V14.01,2013-06-13 11:58:00,
2013-06-13 05:59:00,50.5,48.6,29.88,South,189,0.0,0.0,93,0.00,,---,0.00,VWS V14.01,2013-06-13 11:59:00,
2013-06-13 06:01:00,50.7,48.8,29.88,South,189,0.0,0.0,93,0.00,,---,0.00,VWS V14.01,2013-06-13 12:01:00,
2013-06-13 06:03:00,50.7,48.8,29.88,South,189,0.0,0.0,93,0.00,,---,0.00,VWS V14.01,2013-06-13 12:03:00,
2013-06-13 06:04:00,50.9,49.0,29.88,South,189,0.0,0.0,93,0.00,,---,0.00,VWS V14.01,2013-06-13 12:04:00,
2013-06-13 06:05:00,50.9,49.0,29.88,South,189,0.0,0.0,93,0.00,,---,0.00,VWS V14.01,2013-06-13 12:05:00,
2013-06-13 06:07:00,51.1,49.1,29.88,South,189,0.0,0.0,93,0.00,,---,0.00,VWS V14.01,2013-06-13 12:07:00,
2013-06-13 06:08:00,51.1,49.1,29.88,South,189,0.0,0.0,93,0.00,,---,0.00,VWS V14.01,2013-06-13 12:08:00,
2013-06-13 06:09:00,51.1,49.1,29.88,South,189,0.0,0.0,93,0.00,,---,0.00,VWS V14.01,2013-06-13 12:09:00,
2013-06-13 06:10:00,51.1,49.1,29.88,South,189,0.0,0.0,93,0.00,,---,0.00,VWS V14.01,2013-06-13 12:10:00,
2013-06-13 06:12:00,51.1,49.4,29.88,South,173,2.2,2.7,94,0.00,,---,0.00,VWS V14.01,2013-06-13 12:12:00,
2013-06-13 06:14:00,51.1,49.4,29.88,South,180,3.1,3.1,94,0.00,,---,0.00,VWS V14.01,2013-06-13 12:14:00,
2013-06-13 06:15:00,51.1,49.4,29.88,South,179,2.2,2.7,94,0.00,,---,0.00,VWS V14.01,2013-06-13 12:15:00,
2013-06-13 06:17:00,51.3,49.6,29.88,South,179,0.0,2.7,94,0.00,,---,0.00,VWS V14.01,2013-06-13 12:17:00,
2013-06-13 06:19:00,51.3,49.6,29.91,South,179,0.0,2.7,94,0.00,,---,0.00,VWS V14.01,2013-06-13 12:19:00,
2013-06-13 06:20:00,51.3,49.6,29.91,South,179,0.0,2.7,94,0.00,,---,0.00,VWS V14.01,2013-06-13 12:20:00,
2013-06-13 06:22:00,51.3,49.6,29.91,South,179,0.0,2.7,94,0.00,,---,0.00,VWS V14.01,2013-06-13 12:22:00,
2013-06-13 06:24:00,51.3,49.6,29.91,South,179,0.0,2.7,94,0.00,,---,0.00,VWS V14.01,2013-06-13 12:24:00,
2013-06-13 06:26:00,51.3,49.6,29.91,South,179,0.0,2.7,94,0.00,,---,0.00,VWS V14.01,2013-06-13 12:26:00,
2013-06-13 06:28:00,51.4,49.8,29.91,South,179,0.0,2.7,94,0.00,,---,0.00,VWS V14.01,2013-06-13 12:28:00,
2013-06-13 06:29:00,51.4,49.8,29.91,South,179,0.0,2.7,94,0.00,,---,0.00,VWS V14.01,2013-06-13 12:29:00,
2013-06-13 06:30:00,51.4,49.8,29.91,South,179,2.2,2.7,94,0.00,,---,0.00,VWS V14.01,2013-06-13 12:30:00,
2013-06-13 06:31:00,51.4,49.8,29.91,South,179,0.0,0.0,94,0.00,,---,0.51,VWS V14.01,2013-06-13 12:31:00,
2013-06-13 06:33:00,51.4,49.8,29.91,South,179,0.0,0.0,94,0.00,,---,0.00,VWS V14.01,2013-06-13 12:33:00,
2013-06-13 06:34:00,51.4,49.8,29.91,South,179,0.0,0.0,94,0.00,,---,0.00,VWS V14.01,2013-06-13 12:34:00,
2013-06-13 06:35:00,51.4,49.8,29.91,South,179,0.0,0.0,94,0.00,,---,0.51,VWS V14.01,2013-06-13 12:35:00,
2013-06-13 06:36:00,51.4,49.8,29.91,South,179,2.7,2.7,94,0.00,,---,0.00,VWS V14.01,2013-06-13 12:36:00,
2013-06-13 06:38:00,51.4,49.8,29.91,South,179,0.0,3.6,94,0.00,,---,0.00,VWS V14.01,2013-06-13 12:38:00,
2013-06-13 06:39:00,51.4,49.8,29.91,South,179,0.0,3.6,94,0.00,,---,0.00,VWS V14.01,2013-06-13 12:39:00,
2013-06-13 06:40:00,51.4,49.8,29.91,South,179,0.0,3.6,94,0.00,,---,0.51,VWS V14.01,2013-06-13 12:40:00,
2013-06-13 06:42:00,51.4,49.8,29.91,South,179,0.0,3.6,94,0.00,,---,0.00,VWS V14.01,2013-06-13 12:42:00,
2013-06-13 06:43:00,51.4,49.8,29.91,South,179,0.0,3.6,94,0.00,,---,0.00,VWS V14.01,2013-06-13 12:43:00,
2013-06-13 06:44:00,51.4,49.8,29.91,South,179,0.0,3.6,94,0.00,,---,0.00,VWS V14.01,2013-06-13 12:44:00,
2013-06-13 06:45:00,51.4,49.8,29.91,South,179,0.0,0.0,94,0.00,,---,0.00,VWS V14.01,2013-06-13 12:45:00,
2013-06-13 06:46:00,51.6,50.0,29.91,South,177,0.0,2.2,94,0.00,,---,0.00,VWS V14.01,2013-06-13 12:46:00,
2013-06-13 06:49:00,51.6,50.0,29.91,South,177,0.0,2.2,94,0.00,,---,0.00,VWS V14.01,2013-06-13 12:49:00,
2013-06-13 06:50:00,51.6,50.0,29.91,South,177,0.0,2.2,94,0.00,,---,0.00,VWS V14.01,2013-06-13 12:50:00,
2013-06-13 06:51:00,51.6,50.0,29.91,South,177,0.0,2.2,94,0.00,,---,0.00,VWS V14.01,2013-06-13 12:51:00,
2013-06-13 06:52:00,51.6,50.0,29.91,South,177,0.0,2.2,94,0.00,,---,0.00,VWS V14.01,2013-06-13 12:52:00,
2013-06-13 06:54:00,51.8,49.8,29.91,South,177,0.0,2.2,93,0.00,,---,0.00,VWS V14.01,2013-06-13 12:54:00,
2013-06-13 06:56:00,51.8,49.8,29.91,South,177,0.0,2.2,93,0.00,,---,0.00,VWS V14.01,2013-06-13 12:56:00,
2013-06-13 06:57:00,51.8,49.8,29.91,South,177,0.0,2.2,93,0.00,,---,0.51,VWS V14.01,2013-06-13 12:57:00,
2013-06-13 06:59:00,51.8,49.8,29.91,South,177,0.0,2.2,93,0.00,,---,0.00,VWS V14.01,2013-06-13 12:59:00,
2013-06-13 07:00:00,51.8,49.8,29.91,South,177,0.0,0.0,93,0.00,,---,0.00,VWS V14.01,2013-06-13 13:00:00,
2013-06-13 07:01:00,51.8,49.8,29.91,South,177,0.0,0.0,93,0.00,,---,0.00,VWS V14.01,2013-06-13 13:01:00,
2013-06-13 07:02:00,51.8,49.8,29.91,South,182,3.1,3.1,93,0.00,,---,0.00,VWS V14.01,2013-06-13 13:02:00,
2013-06-13 07:04:00,51.8,49.8,29.91,South,182,0.0,3.1,93,0.00,,---,0.00,VWS V14.01,2013-06-13 13:04:00,
2013-06-13 07:06:00,51.8,49.8,29.91,South,182,2.2,3.1,93,0.00,,---,0.51,VWS V14.01,2013-06-13 13:06:00,
2013-06-13 07:07:00,51.6,49.7,29.91,South,182,2.2,3.1,93,0.00,,---,0.00,VWS V14.01,2013-06-13 13:07:00,
2013-06-13 07:10:00,51.6,49.7,29.91,South,182,0.0,3.1,93,0.00,,---,0.00,VWS V14.01,2013-06-13 13:10:00,
2013-06-13 07:11:00,51.6,49.7,29.91,South,182,0.0,3.1,93,0.00,,---,0.00,VWS V14.01,2013-06-13 13:11:00,
2013-06-13 07:12:00,51.6,49.7,29.91,South,182,0.0,3.1,93,0.00,,---,0.00,VWS V14.01,2013-06-13 13:12:00,
2013-06-13 07:15:00,51.6,49.7,29.91,South,182,2.2,3.1,93,0.00,,---,0.00,VWS V14.01,2013-06-13 13:15:00,
2013-06-13 07:16:00,51.6,49.7,29.91,SSW,198,3.6,3.6,93,0.00,,---,0.00,VWS V14.01,2013-06-13 13:16:00,
2013-06-13 07:17:00,51.6,49.7,29.91,SSW,199,2.7,3.6,93,0.00,,---,0.00,VWS V14.01,2013-06-13 13:17:00,
2013-06-13 07:18:00,51.6,49.7,29.91,SSW,199,2.2,3.6,93,0.00,,---,0.00,VWS V14.01,2013-06-13 13:18:00,
2013-06-13 07:20:00,51.6,49.4,29.91,SSW,198,0.0,3.6,92,0.00,,---,0.00,VWS V14.01,2013-06-13 13:20:00,
2013-06-13 07:21:00,51.6,49.4,29.91,SSW,199,0.0,3.6,92,0.00,,---,0.00,VWS V14.01,2013-06-13 13:21:00,
2013-06-13 07:22:00,51.6,49.4,29.91,SSW,198,0.0,3.6,92,0.00,,---,0.00,VWS V14.01,2013-06-13 13:22:00,
2013-06-13 07:23:00,51.6,49.4,29.91,SSW,199,0.0,3.6,92,0.00,,---,0.00,VWS V14.01,2013-06-13 13:23:00,
2013-06-13 07:25:00,51.6,49.4,29.91,SSW,199,0.0,3.6,92,0.00,,---,0.51,VWS V14.01,2013-06-13 13:25:00,
2013-06-13 07:27:00,51.6,49.4,29.91,SSW,199,0.0,3.6,92,0.00,,---,0.00,VWS V14.01,2013-06-13 13:27:00,
2013-06-13 07:28:00,51.6,49.4,29.91,SSW,199,0.0,3.6,92,0.00,,---,0.00,VWS V14.01,2013-06-13 13:28:00,
2013-06-13 07:30:00,51.8,49.5,29.91,SSW,198,0.0,0.0,92,0.00,,---,0.00,VWS V14.01,2013-06-13 13:30:00,
2013-06-13 07:32:00,51.8,49.5,29.91,SSW,198,0.0,0.0,92,0.00,,---,0.00,VWS V14.01,2013-06-13 13:32:00,
2013-06-13 07:33:00,51.8,49.5,29.91,SSW,199,0.0,0.0,92,0.00,,---,0.00,VWS V14.01,2013-06-13 13:33:00,
2013-06-13 07:34:00,51.8,49.5,29.91,SSW,198,0.0,0.0,92,0.00,,---,0.00,VWS V14.01,2013-06-13 13:34:00,
2013-06-13 07:36:00,51.8,49.5,29.91,SSW,199,0.0,0.0,92,0.00,,---,0.00,VWS V14.01,2013-06-13 13:36:00,
2013-06-13 07:37:00,51.8,49.5,29.91,SSW,198,0.0,0.0,92,0.00,,---,0.00,VWS V14.01,2013-06-13 13:37:00,
2013-06-13 07:38:00,51.8,49.5,29.91,SSW,199,0.0,0.0,92,0.00,,---,0.00,VWS V14.01,2013-06-13 13:38:00,
2013-06-13 07:39:00,51.8,49.5,29.91,SSW,198,0.0,0.0,92,0.00,,---,0.00,VWS V14.01,2013-06-13 13:39:00,
2013-06-13 07:41:00,51.8,49.3,29.91,SSW,198,0.0,0.0,91,0.00,,---,0.00,VWS V14.01,2013-06-13 13:41:00,
2013-06-13 07:42:00,51.8,49.3,29.91,SSW,198,0.0,0.0,91,0.00,,---,0.00,VWS V14.01,2013-06-13 13:42:00,
2013-06-13 07:43:00,51.8,49.3,29.91,SSW,198,0.0,0.0,91,0.00,,---,0.00,VWS V14.01,2013-06-13 13:43:00,
2013-06-13 07:44:00,51.8,49.3,29.91,SSW,198,0.0,0.0,91,0.00,,---,0.00,VWS V14.01,2013-06-13 13:44:00,
2013-06-13 07:46:00,51.8,49.3,29.91,SSW,198,0.0,0.0,91,0.00,,---,0.00,VWS V14.01,2013-06-13 13:46:00,
2013-06-13 07:47:00,51.8,49.3,29.91,SSW,199,0.0,0.0,91,0.00,,---,0.51,VWS V14.01,2013-06-13 13:47:00,
2013-06-13 07:48:00,51.8,49.3,29.91,SSW,199,0.0,0.0,91,0.00,,---,0.00,VWS V14.01,2013-06-13 13:48:00,
2013-06-13 07:49:00,51.8,49.3,29.91,SSW,199,0.0,0.0,91,0.00,,---,0.51,VWS V14.01,2013-06-13 13:49:00,
2013-06-13 07:51:00,51.8,49.3,29.91,SSW,199,0.0,0.0,91,0.00,,---,0.00,VWS V14.01,2013-06-13 13:51:00,
2013-06-13 07:53:00,51.8,49.3,29.91,SSW,198,0.0,0.0,91,0.00,,---,0.00,VWS V14.01,2013-06-13 13:53:00,
2013-06-13 07:54:00,51.8,49.3,29.91,SSW,198,0.0,0.0,91,0.00,,---,0.00,VWS V14.01,2013-06-13 13:54:00,
2013-06-13 07:56:00,51.8,49.3,29.91,SSW,199,0.0,0.0,91,0.00,,---,0.00,VWS V14.01,2013-06-13 13:56:00,
2013-06-13 07:58:00,51.8,49.3,29.91,SSW,199,0.0,0.0,91,0.00,,---,0.00,VWS V14.01,2013-06-13 13:58:00,
2013-06-13 07:59:00,51.8,49.3,29.91,SSW,198,0.0,0.0,91,0.00,,---,0.00,VWS V14.01,2013-06-13 13:59:00,
2013-06-13 08:00:00,51.8,49.3,29.91,SSW,199,0.0,0.0,91,0.00,,---,0.00,VWS V14.01,2013-06-13 14:00:00,
2013-06-13 08:01:00,51.8,49.3,29.91,SSW,198,0.0,0.0,91,0.00,,---,0.00,VWS V14.01,2013-06-13 14:01:00,
2013-06-13 08:03:00,51.8,49.3,29.91,SSW,198,0.0,0.0,91,0.00,,---,0.00,VWS V14.01,2013-06-13 14:03:00,
2013-06-13 08:04:00,51.8,49.3,29.91,SSW,198,0.0,0.0,91,0.00,,---,0.00,VWS V14.01,2013-06-13 14:04:00,
2013-06-13 08:05:00,51.6,49.1,29.91,SSW,198,0.0,0.0,91,0.00,,---,0.00,VWS V14.01,2013-06-13 14:05:00,
2013-06-13 08:06:00,51.6,49.1,29.91,SSW,198,0.0,0.0,91,0.00,,---,0.00,VWS V14.01,2013-06-13 14:06:00,
2013-06-13 08:08:00,51.6,49.1,29.91,SSW,198,0.0,0.0,91,0.00,,---,0.00,VWS V14.01,2013-06-13 14:08:00,
2013-06-13 08:09:00,51.6,49.1,29.91,SSW,199,0.0,0.0,91,0.00,,---,0.00,VWS V14.01,2013-06-13 14:09:00,
2013-06-13 08:11:00,51.6,49.1,29.91,SSW,199,0.0,0.0,91,0.00,,---,0.51,VWS V14.01,2013-06-13 14:11:00,
2013-06-13 08:14:00,51.6,49.1,29.91,SSW,199,0.0,0.0,91,0.00,,---,0.00,VWS V14.01,2013-06-13 14:14:00,
2013-06-13 08:15:00,51.6,49.1,29.91,SSW,199,0.0,0.0,91,0.00,,---,0.00,VWS V14.01,2013-06-13 14:15:00,
2013-06-13 08:17:00,51.6,49.1,29.91,SSW,199,0.0,0.0,91,0.00,,---,0.00,VWS V14.01,2013-06-13 14:17:00,
2013-06-13 08:19:00,51.6,49.1,29.91,SSW,198,0.0,0.0,91,0.00,,---,0.00,VWS V14.01,2013-06-13 14:19:00,
2013-06-13 08:20:00,51.6,49.1,29.91,SSW,199,0.0,0.0,91,0.00,,---,0.00,VWS V14.01,2013-06-13 14:20:00,
2013-06-13 08:22:00,51.6,49.1,29.91,SSW,198,0.0,0.0,91,0.00,,---,0.00,VWS V14.01,2013-06-13 14:22:00,
2013-06-13 08:24:00,51.6,48.8,29.91,SSW,198,0.0,0.0,90,0.00,,---,0.00,VWS V14.01,2013-06-13 14:24:00,
2013-06-13 08:25:00,51.6,48.8,29.91,SSW,198,0.0,0.0,90,0.00,,---,0.00,VWS V14.01,2013-06-13 14:25:00,
2013-06-13 08:27:00,51.4,48.6,29.91,SSW,199,0.0,0.0,90,0.00,,---,0.00,VWS V14.01,2013-06-13 14:27:00,
2013-06-13 08:29:00,51.4,48.6,29.91,SSW,198,0.0,0.0,90,0.00,,---,0.00,VWS V14.01,2013-06-13 14:29:00,
2013-06-13 08:30:00,51.3,48.4,29.91,SSW,198,0.0,0.0,90,0.00,,---,0.00,VWS V14.01,2013-06-13 14:30:00,
2013-06-13 08:32:00,51.3,48.1,29.91,SSW,199,0.0,0.0,89,0.00,,---,0.00,VWS V14.01,2013-06-13 14:32:00,
2013-06-13 08:34:00,51.3,48.1,29.91,SSW,198,0.0,0.0,89,0.00,,---,0.00,VWS V14.01,2013-06-13 14:34:00,
2013-06-13 08:35:00,51.3,48.1,29.91,SSW,198,0.0,0.0,89,0.00,,---,0.51,VWS V14.01,2013-06-13 14:35:00,
2013-06-13 08:37:00,51.3,47.8,29.91,SSW,199,0.0,0.0,88,0.00,,---,0.00,VWS V14.01,2013-06-13 14:37:00,
2013-06-13 08:39:00,51.3,47.8,29.91,SSW,199,0.0,0.0,88,0.00,,---,0.51,VWS V14.01,2013-06-13 14:39:00,
2013-06-13 08:40:00,51.3,47.8,29.91,SSW,199,0.0,0.0,88,0.00,,---,0.00,VWS V14.01,2013-06-13 14:40:00,
2013-06-13 08:42:00,51.3,47.8,29.91,SSW,199,0.0,0.0,88,0.00,,---,0.00,VWS V14.01,2013-06-13 14:42:00,
2013-06-13 08:44:00,51.4,48.0,29.91,SSW,199,0.0,0.0,88,0.00,,---,0.00,VWS V14.01,2013-06-13 14:44:00,
2013-06-13 08:45:00,51.4,48.0,29.91,SSW,198,0.0,0.0,88,0.00,,---,0.00,VWS V14.01,2013-06-13 14:45:00,
2013-06-13 08:47:00,51.4,48.0,29.91,SSW,199,0.0,0.0,88,0.00,,---,0.00,VWS V14.01,2013-06-13 14:47:00,
2013-06-13 08:49:00,51.6,48.2,29.91,SSW,198,0.0,0.0,88,0.00,,---,0.00,VWS V14.01,2013-06-13 14:49:00,
2013-06-13 08:50:00,51.6,48.2,29.91,SSW,198,0.0,0.0,88,0.00,,---,0.00,VWS V14.01,2013-06-13 14:50:00,
2013-06-13 08:51:00,51.6,48.2,29.91,SSW,199,0.0,0.0,88,0.00,,---,0.51,VWS V14.01,2013-06-13 14:51:00,
2013-06-13 08:52:00,51.6,48.2,29.91,SSW,198,0.0,0.0,88,0.00,,---,0.00,VWS V14.01,2013-06-13 14:52:00,
2013-06-13 08:54:00,51.6,48.2,29.91,SSW,198,0.0,0.0,88,0.00,,---,0.51,VWS V14.01,2013-06-13 14:54:00,
2013-06-13 08:55:00,51.6,48.2,29.91,SSW,199,0.0,0.0,88,0.00,,---,0.00,VWS V14.01,2013-06-13 14:55:00,
2013-06-13 08:56:00,51.6,47.9,29.91,SSW,199,2.2,2.7,87,0.00,,---,0.00,VWS V14.01,2013-06-13 14:56:00,
2013-06-13 08:58:00,51.4,47.1,29.91,SSW,198,0.0,2.7,85,0.00,,---,0.00,VWS V14.01,2013-06-13 14:58:00,
2013-06-13 08:59:00,51.4,46.8,29.91,SSW,198,0.0,2.7,84,0.00,,---,0.00,VWS V14.01,2013-06-13 14:59:00,
2013-06-13 09:00:00,51.4,46.8,29.91,SSW,199,0.0,0.0,84,0.00,,---,0.00,VWS V14.01,2013-06-13 15:00:00,
2013-06-13 09:01:00,51.3,46.6,29.91,SSW,198,0.0,0.0,84,0.00,,---,0.00,VWS V14.01,2013-06-13 15:01:00,
2013-06-13 09:03:00,51.3,46.3,29.91,SSW,199,0.0,0.0,83,0.00,,---,0.51,VWS V14.01,2013-06-13 15:03:00,
2013-06-13 09:04:00,51.3,46.3,29.91,SSW,198,0.0,0.0,83,0.00,,---,0.00,VWS V14.01,2013-06-13 15:04:00,
2013-06-13 09:05:00,51.3,46.0,29.91,SSW,198,0.0,0.0,82,0.00,,---,0.00,VWS V14.01,2013-06-13 15:05:00,
2013-06-13 09:06:00,51.3,46.0,29.91,SSW,198,0.0,0.0,82,0.00,,---,0.00,VWS V14.01,2013-06-13 15:06:00,
2013-06-13 09:08:00,51.3,46.0,29.91,SSW,198,0.0,0.0,82,0.00,,---,0.00,VWS V14.01,2013-06-13 15:08:00,
2013-06-13 09:09:00,51.3,46.0,29.91,SSW,198,0.0,0.0,82,0.00,,---,0.00,VWS V14.01,2013-06-13 15:09:00,
2013-06-13 09:10:00,51.3,46.0,29.91,SSW,198,0.0,0.0,82,0.00,,---,0.00,VWS V14.01,2013-06-13 15:10:00,
2013-06-13 09:11:00,51.3,46.0,29.91,SSW,198,0.0,0.0,82,0.00,,---,0.00,VWS V14.01,2013-06-13 15:11:00,
2013-06-13 09:13:00,51.3,45.6,29.91,SSW,199,0.0,0.0,81,0.00,,---,0.00,VWS V14.01,2013-06-13 15:13:00,
2013-06-13 09:14:00,51.3,45.6,29.91,SSW,199,0.0,0.0,81,0.00,,---,0.00,VWS V14.01,2013-06-13 15:14:00,
2013-06-13 09:15:00,51.3,45.3,29.91,SSW,198,0.0,0.0,80,0.00,,---,0.00,VWS V14.01,2013-06-13 15:15:00,
2013-06-13 09:16:00,51.3,45.3,29.91,SSW,199,0.0,0.0,80,0.00,,---,0.00,VWS V14.01,2013-06-13 15:16:00,
2013-06-13 09:17:00,51.3,45.3,29.91,SSW,198,0.0,0.0,80,0.00,,---,0.00,VWS V14.01,2013-06-13 15:17:00,
2013-06-13 09:18:00,51.3,45.0,29.94,SSW,198,0.0,0.0,79,0.00,,---,0.00,VWS V14.01,2013-06-13 15:18:00,
2013-06-13 09:20:00,51.1,44.5,29.94,SSW,198,0.0,2.2,78,0.00,,---,0.00,VWS V14.01,2013-06-13 15:20:00,
2013-06-13 09:21:00,51.1,44.5,29.94,SSW,198,0.0,2.2,78,0.00,,---,0.00,VWS V14.01,2013-06-13 15:21:00,
2013-06-13 09:22:00,51.1,43.8,29.94,SSW,199,0.0,2.2,76,0.00,,---,0.00,VWS V14.01,2013-06-13 15:22:00,
2013-06-13 09:23:00,50.9,43.6,29.94,SSW,198,0.0,2.2,76,0.00,,---,0.00,VWS V14.01,2013-06-13 15:23:00,
2013-06-13 09:25:00,50.9,43.3,29.94,NNW,340,0.0,3.6,75,0.00,,---,0.00,VWS V14.01,2013-06-13 15:25:00,
2013-06-13 09:26:00,50.9,43.3,29.94,NNW,343,0.0,3.6,75,0.00,,---,0.51,VWS V14.01,2013-06-13 15:26:00,
2013-06-13 09:27:00,50.9,42.9,29.94,NNW,343,0.0,3.6,74,0.00,,---,0.00,VWS V14.01,2013-06-13 15:27:00,
2013-06-13 09:28:00,50.7,42.4,29.94,NNE,14,2.2,3.6,73,0.00,,---,0.00,VWS V14.01,2013-06-13 15:28:00,
2013-06-13 09:30:00,50.5,42.2,29.94,North,6,0.0,0.0,73,0.00,,---,0.00,VWS V14.01,2013-06-13 15:30:00,
2013-06-13 09:31:00,50.5,41.9,29.94,North,6,0.0,0.0,72,0.00,,---,0.00,VWS V14.01,2013-06-13 15:31:00,
2013-06-13 09:32:00,50.5,41.9,29.91,North,6,0.0,0.0,72,0.00,,---,0.00,VWS V14.01,2013-06-13 15:32:00,
2013-06-13 09:34:00,50.5,41.9,29.91,North,6,0.0,0.0,72,0.00,,---,0.00,VWS V14.01,2013-06-13 15:34:00,
2013-06-13 09:35:00,50.5,41.9,29.91,North,6,0.0,0.0,72,0.00,,---,0.00,VWS V14.01,2013-06-13 15:35:00,
2013-06-13 09:36:00,50.5,41.9,29.91,North,6,0.0,0.0,72,0.00,,---,0.51,VWS V14.01,2013-06-13 15:36:00,
2013-06-13 09:37:00,50.5,41.9,29.91,North,6,0.0,0.0,72,0.00,,---,0.00,VWS V14.01,2013-06-13 15:37:00,
2013-06-13 09:39:00,50.5,41.5,29.91,North,6,0.0,0.0,71,0.00,,---,0.00,VWS V14.01,2013-06-13 15:39:00,
2013-06-13 09:40:00,50.5,41.5,29.91,North,6,0.0,0.0,71,0.00,,---,0.00,VWS V14.01,2013-06-13 15:40:00,
2013-06-13 09:42:00,50.5,41.5,29.91,North,6,0.0,0.0,71,0.00,,---,0.00,VWS V14.01,2013-06-13 15:42:00,
2013-06-13 09:44:00,50.5,41.5,29.91,North,6,0.0,0.0,71,0.00,,---,0.00,VWS V14.01,2013-06-13 15:44:00,
2013-06-13 09:45:00,50.5,41.5,29.91,ENE,64,0.0,0.0,71,0.00,,---,0.00,VWS V14.01,2013-06-13 15:45:00,
2013-06-13 09:47:00,50.5,40.8,29.91,NNE,32,0.0,0.0,69,0.00,,---,0.51,VWS V14.01,2013-06-13 15:47:00,
2013-06-13 09:50:00,50.7,40.9,29.91,East,92,0.0,2.2,69,0.00,,---,0.00,VWS V14.01,2013-06-13 15:50:00,
2013-06-13 09:52:00,50.7,40.9,29.91,East,92,0.0,2.2,69,0.00,,---,0.00,VWS V14.01,2013-06-13 15:52:00,
2013-06-13 09:53:00,50.7,40.9,29.91,East,92,0.0,2.2,69,0.00,,---,0.00,VWS V14.01,2013-06-13 15:53:00,
2013-06-13 09:55:00,50.9,41.1,29.91,East,92,0.0,2.2,69,0.00,,---,0.00,VWS V14.01,2013-06-13 15:55:00,
2013-06-13 09:57:00,50.9,41.1,29.91,East,92,0.0,2.2,69,0.00,,---,0.00,VWS V14.01,2013-06-13 15:57:00,
2013-06-13 09:58:00,50.9,41.1,29.91,East,92,0.0,2.2,69,0.00,,---,0.00,VWS V14.01,2013-06-13 15:58:00,
2013-06-13 10:00:00,50.9,41.1,29.91,East,92,0.0,0.0,69,0.00,,---,0.00,VWS V14.01,2013-06-13 16:00:00,
2013-06-13 10:01:00,50.9,41.1,29.91,East,92,0.0,0.0,69,0.00,,---,0.00,VWS V14.01,2013-06-13 16:01:00,
2013-06-13 10:02:00,51.1,41.3,29.91,East,92,0.0,0.0,69,0.00,,---,0.00,VWS V14.01,2013-06-13 16:02:00,
2013-06-13 10:03:00,51.1,41.3,29.91,East,92,0.0,0.0,69,0.00,,---,0.00,VWS V14.01,2013-06-13 16:03:00,
2013-06-13 10:05:00,50.9,40.7,29.91,NE,41,0.0,0.0,68,0.00,,---,0.00,VWS V14.01,2013-06-13 16:05:00,
2013-06-13 10:06:00,50.9,40.7,29.91,NE,41,0.0,0.0,68,0.00,,---,0.51,VWS V14.01,2013-06-13 16:06:00,
2013-06-13 10:07:00,50.9,40.7,29.91,NE,41,0.0,0.0,68,0.00,,---,0.00,VWS V14.01,2013-06-13 16:07:00,
2013-06-13 10:08:00,50.9,40.7,29.91,NE,41,0.0,0.0,68,0.00,,---,0.00,VWS V14.01,2013-06-13 16:08:00,
2013-06-13 10:09:00,50.9,40.7,29.91,North,357,0.0,0.0,68,0.00,,---,0.00,VWS V14.01,2013-06-13 16:09:00,
2013-06-13 10:10:00,50.7,40.2,29.91,North,350,2.7,2.7,67,0.00,,---,0.00,VWS V14.01,2013-06-13 16:10:00,
2013-06-13 10:11:00,50.7,40.2,29.91,North,353,0.0,2.7,67,0.00,,---,0.00,VWS V14.01,2013-06-13 16:11:00,
2013-06-13 10:13:00,50.5,38.8,29.91,North,357,2.7,3.1,64,0.00,,---,0.00,VWS V14.01,2013-06-13 16:13:00,
2013-06-13 10:14:00,50.4,38.3,29.91,North,357,2.2,3.6,63,0.00,,---,0.00,VWS V14.01,2013-06-13 16:14:00,
2013-06-13 10:15:00,50.4,38.3,29.91,North,4,0.0,2.2,63,0.00,,---,0.00,VWS V14.01,2013-06-13 16:15:00,
2013-06-13 10:16:00,50.4,38.3,29.91,North,4,0.0,2.2,63,0.00,,---,0.00,VWS V14.01,2013-06-13 16:16:00,
2013-06-13 10:18:00,50.4,38.7,29.91,North,4,0.0,2.2,64,0.00,,---,0.00,VWS V14.01,2013-06-13 16:18:00,
2013-06-13 10:20:00,50.4,38.7,29.91,North,4,0.0,2.2,64,0.00,,---,0.00,VWS V14.01,2013-06-13 16:20:00,
2013-06-13 10:21:00,50.4,38.7,29.91,North,4,0.0,2.2,64,0.00,,---,0.00,VWS V14.01,2013-06-13 16:21:00,
2013-06-13 10:23:00,50.5,38.8,29.91,North,4,0.0,2.2,64,0.00,,---,0.00,VWS V14.01,2013-06-13 16:23:00,
2013-06-13 10:25:00,50.5,38.8,29.91,North,4,0.0,2.2,64,0.00,,---,0.00,VWS V14.01,2013-06-13 16:25:00,
2013-06-13 10:26:00,50.7,39.0,29.91,North,4,0.0,2.2,64,0.00,,---,0.00,VWS V14.01,2013-06-13 16:26:00,
2013-06-13 10:28:00,50.7,39.0,29.91,North,4,0.0,2.2,64,0.00,,---,0.00,VWS V14.01,2013-06-13 16:28:00,
2013-06-13 10:30:00,50.9,39.2,29.91,North,4,0.0,0.0,64,0.00,,---,0.00,VWS V14.01,2013-06-13 16:30:00,
2013-06-13 10:31:00,50.7,38.2,29.91,ENE,75,0.0,0.0,62,0.00,,---,0.00,VWS V14.01,2013-06-13 16:31:00,
2013-06-13 10:32:00,50.7,38.2,29.91,ENE,67,0.0,0.0,62,0.00,,---,0.00,VWS V14.01,2013-06-13 16:32:00,
2013-06-13 10:33:00,50.9,38.0,29.91,NE,50,0.0,0.0,61,0.00,,---,0.00,VWS V14.01,2013-06-13 16:33:00,
2013-06-13 10:35:00,51.1,38.1,29.91,NNE,28,0.0,2.2,61,0.00,,---,0.00,VWS V14.01,2013-06-13 16:35:00,
2013-06-13 10:37:00,51.1,38.1,29.91,NNE,28,0.0,2.2,61,0.00,,---,0.00,VWS V14.01,2013-06-13 16:37:00,
2013-06-13 10:38:00,51.1,37.3,29.91,NNE,28,2.7,2.7,59,0.00,,---,0.00,VWS V14.01,2013-06-13 16:38:00,
2013-06-13 10:40:00,50.9,36.2,29.91,NNE,28,2.7,2.7,57,0.00,,---,0.00,VWS V14.01,2013-06-13 16:40:00,
2013-06-13 10:42:00,50.7,35.6,29.91,NNE,12,2.7,3.6,56,0.00,,---,0.00,VWS V14.01,2013-06-13 16:42:00,
2013-06-13 10:43:00,50.7,36.1,29.91,NNE,12,0.0,3.6,57,0.00,,---,0.51,VWS V14.01,2013-06-13 16:43:00,
2013-06-13 10:45:00,50.7,36.1,29.91,North,357,0.0,0.0,57,0.00,,---,0.00,VWS V14.01,2013-06-13 16:45:00,
2013-06-13 10:47:00,50.7,36.1,29.91,North,357,0.0,0.0,57,0.00,,---,0.00,VWS V14.01,2013-06-13 16:47:00,
2013-06-13 10:48:00,50.9,36.7,29.91,NNE,23,0.0,0.0,58,0.00,,---,0.51,VWS V14.01,2013-06-13 16:48:00,
2013-06-13 10:49:00,50.9,36.7,29.91,NNE,23,0.0,0.0,58,0.00,,---,0.00,VWS V14.01,2013-06-13 16:49:00,
2013-06-13 10:51:00,50.9,36.2,29.91,NNE,18,3.1,3.1,57,0.00,,---,0.00,VWS V14.01,2013-06-13 16:51:00,
2013-06-13 10:52:00,50.9,36.2,29.91,NNE,18,0.0,3.1,57,0.00,,---,0.00,VWS V14.01,2013-06-13 16:52:00,
2013-06-13 10:53:00,50.9,37.1,29.91,NNW,337,0.0,3.1,59,0.00,,---,0.00,VWS V14.01,2013-06-13 16:53:00,
2013-06-13 10:54:00,51.1,37.3,29.91,NNW,337,2.2,3.1,59,0.00,,---,0.00,VWS V14.01,2013-06-13 16:54:00,
2013-06-13 10:56:00,51.1,36.8,29.91,North,357,2.2,3.6,58,0.00,,---,0.51,VWS V14.01,2013-06-13 16:56:00,
2013-06-13 10:57:00,50.9,36.2,29.91,North,353,0.0,3.6,57,0.00,,---,0.00,VWS V14.01,2013-06-13 16:57:00,
2013-06-13 10:58:00,51.1,36.0,29.91,NNW,327,0.0,3.6,56,0.00,,---,0.51,VWS V14.01,2013-06-13 16:58:00,
2013-06-13 10:59:00,51.1,36.0,29.91,North,0,2.7,3.6,56,0.00,,---,0.00,VWS V14.01,2013-06-13 16:59:00,
2013-06-13 11:01:00,51.3,36.6,29.91,North,353,3.1,4.0,57,0.00,,---,0.00,VWS V14.01,2013-06-13 17:01:00,
2013-06-13 11:03:00,51.3,35.7,29.91,North,357,3.1,4.0,55,0.00,,---,0.00,VWS V14.01,2013-06-13 17:03:00,
2013-06-13 11:04:00,51.1,35.0,29.91,North,5,2.7,4.0,54,0.00,,---,0.00,VWS V14.01,2013-06-13 17:04:00,
2013-06-13 11:06:00,51.1,35.0,29.91,NNW,342,0.0,4.0,54,0.00,,---,0.00,VWS V14.01,2013-06-13 17:06:00,
2013-06-13 11:08:00,51.1,35.0,29.91,NNW,338,0.0,4.0,54,0.00,,---,0.00,VWS V14.01,2013-06-13 17:08:00,
2013-06-13 11:09:00,51.3,35.7,29.91,North,0,2.7,4.0,55,0.00,,---,0.00,VWS V14.01,2013-06-13 17:09:00,
2013-06-13 11:12:00,51.4,35.8,29.91,North,0,0.0,4.0,55,0.00,,---,0.00,VWS V14.01,2013-06-13 17:12:00,
2013-06-13 11:13:00,51.4,35.8,29.91,NNW,342,0.0,4.0,55,0.00,,---,0.00,VWS V14.01,2013-06-13 17:13:00,
2013-06-13 11:14:00,51.6,36.0,29.91,NNW,338,0.0,4.0,55,0.00,,---,0.00,VWS V14.01,2013-06-13 17:14:00,
2013-06-13 11:17:00,51.6,36.0,29.91,North,353,3.1,4.9,55,0.00,,---,0.00,VWS V14.01,2013-06-13 17:17:00,
2013-06-13 11:18:00,51.4,35.8,29.91,North,353,3.1,4.9,55,0.00,,---,0.00,VWS V14.01,2013-06-13 17:18:00,
2013-06-13 11:19:00,51.4,35.8,29.91,North,0,3.6,5.4,55,0.00,,---,0.00,VWS V14.01,2013-06-13 17:19:00,
2013-06-13 11:22:00,51.3,35.7,29.91,NW,317,3.6,5.4,55,0.00,,---,0.00,VWS V14.01,2013-06-13 17:22:00,
2013-06-13 11:23:00,51.3,36.1,29.91,NW,304,2.7,5.4,56,0.00,,---,0.00,VWS V14.01,2013-06-13 17:23:00,
2013-06-13 11:24:00,51.3,36.1,29.91,NW,304,0.0,5.4,56,0.00,,---,0.00,VWS V14.01,2013-06-13 17:24:00,
2013-06-13 11:27:00,51.3,37.4,29.91,NW,304,0.0,5.4,59,0.00,,---,0.00,VWS V14.01,2013-06-13 17:27:00,
2013-06-13 11:28:00,51.4,38.0,29.91,WNW,300,0.0,5.4,60,0.00,,---,0.00,VWS V14.01,2013-06-13 17:28:00,
2013-06-13 11:29:00,51.6,37.8,29.91,WNW,300,0.0,5.4,59,0.00,,---,0.00,VWS V14.01,2013-06-13 17:29:00,
2013-06-13 11:33:00,51.8,37.1,29.91,WNW,300,0.0,0.0,57,0.00,,---,0.00,VWS V14.01,2013-06-13 17:33:00,
2013-06-13 11:34:00,51.8,36.6,29.91,North,353,2.2,2.7,56,0.00,,---,0.00,VWS V14.01,2013-06-13 17:34:00,
2013-06-13 11:35:00,51.8,36.2,29.91,NNE,15,2.7,2.7,55,0.00,,---,0.00,VWS V14.01,2013-06-13 17:35:00,
2013-06-13 11:38:00,51.8,35.2,29.91,North,2,2.7,3.6,53,0.00,,---,0.00,VWS V14.01,2013-06-13 17:38:00,
2013-06-13 11:39:00,51.8,34.8,29.91,North,0,3.6,4.0,52,0.00,,---,0.00,VWS V14.01,2013-06-13 17:39:00,
2013-06-13 11:40:00,51.8,34.8,29.91,North,8,2.7,4.0,52,0.00,,---,0.00,VWS V14.01,2013-06-13 17:40:00,
2013-06-13 11:43:00,51.8,34.8,29.91,NNW,346,3.1,4.0,52,0.00,,---,0.00,VWS V14.01,2013-06-13 17:43:00,
2013-06-13 11:44:00,51.8,34.8,29.91,NNW,346,0.0,4.0,52,0.00,,---,0.51,VWS V14.01,2013-06-13 17:44:00,
2013-06-13 11:45:00,51.8,34.8,29.91,NNW,346,0.0,4.0,52,0.00,,---,0.00,VWS V14.01,2013-06-13 17:45:00,
2013-06-13 11:46:00,51.6,35.1,29.91,NNW,327,3.6,3.6,53,0.00,,---,0.00,VWS V14.01,2013-06-13 17:46:00,
2013-06-13 11:49:00,51.6,34.1,29.91,NNW,337,3.1,4.9,51,0.00,,---,0.00,VWS V14.01,2013-06-13 17:49:00,
2013-06-13 11:50:00,51.4,33.9,29.91,North,353,4.9,4.9,51,0.00,,---,0.00,VWS V14.01,2013-06-13 17:50:00,
2013-06-13 11:51:00,51.4,33.9,29.91,North,1,4.0,4.9,51,0.00,,---,0.00,VWS V14.01,2013-06-13 17:51:00,
2013-06-13 11:54:00,51.1,32.6,29.91,North,353,3.6,5.4,49,0.00,,---,0.00,VWS V14.01,2013-06-13 17:54:00,
2013-06-13 11:55:00,51.1,32.6,29.91,North,353,2.7,5.4,49,0.00,,---,0.00,VWS V14.01,2013-06-13 17:55:00,
2013-06-13 11:56:00,51.3,33.3,29.91,North,2,4.0,5.4,50,0.00,,---,0.00,VWS V14.01,2013-06-13 17:56:00,
2013-06-13 11:59:00,51.1,33.6,29.91,North,357,3.6,6.3,51,0.00,,---,0.00,VWS V14.01,2013-06-13 17:59:00,
2013-06-13 12:00:00,51.1,33.6,29.91,NNW,331,4.0,4.0,51,0.00,,---,0.00,VWS V14.01,2013-06-13 18:00:00,
2013-06-13 12:01:00,51.1,33.1,29.91,North,0,3.6,4.0,50,0.00,,---,0.00,VWS V14.01,2013-06-13 18:01:00,
2013-06-13 12:02:00,51.1,33.1,29.91,North,0,2.2,4.0,50,0.00,,---,0.00,VWS V14.01,2013-06-13 18:02:00,
2013-06-13 12:04:00,51.3,33.8,29.91,North,3,3.6,4.9,51,0.00,,---,0.00,VWS V14.01,2013-06-13 18:04:00,
2013-06-13 12:05:00,51.3,33.8,29.91,North,10,4.0,4.9,51,0.00,,---,0.00,VWS V14.01,2013-06-13 18:05:00,
2013-06-13 12:07:00,51.4,33.9,29.91,NNE,15,5.4,5.4,51,0.00,,---,0.00,VWS V14.01,2013-06-13 18:07:00,
2013-06-13 12:09:00,51.3,32.8,29.91,North,0,3.1,5.8,49,0.00,,---,0.00,VWS V14.01,2013-06-13 18:09:00,
2013-06-13 12:10:00,51.3,32.8,29.91,North,353,0.0,5.8,49,0.00,,---,0.00,VWS V14.01,2013-06-13 18:10:00,
2013-06-13 12:12:00,51.3,33.3,29.91,North,357,3.6,5.8,50,0.00,,---,0.00,VWS V14.01,2013-06-13 18:12:00,
2013-06-13 12:15:00,51.4,33.9,29.91,North,4,2.7,2.7,51,0.00,,---,0.51,VWS V14.01,2013-06-13 18:15:00,
2013-06-13 12:17:00,51.4,32.9,29.91,North,350,5.4,5.8,49,0.00,,---,0.00,VWS V14.01,2013-06-13 18:17:00,
2013-06-13 12:20:00,51.6,33.1,29.91,North,357,2.2,5.8,49,0.00,,---,0.00,VWS V14.01,2013-06-13 18:20:00,
2013-06-13 12:21:00,51.6,33.1,29.91,NW,321,4.0,5.8,49,0.00,,---,0.51,VWS V14.01,2013-06-13 18:21:00,
2013-06-13 12:22:00,51.8,33.8,29.91,North,7,2.7,5.8,50,0.00,,---,0.00,VWS V14.01,2013-06-13 18:22:00,
2013-06-13 12:25:00,52.0,33.4,29.91,NNW,340,2.7,5.8,49,0.00,,---,0.00,VWS V14.01,2013-06-13 18:25:00,
2013-06-13 12:26:00,52.0,33.4,29.91,NW,326,2.7,5.8,49,0.00,,---,0.51,VWS V14.01,2013-06-13 18:26:00,
2013-06-13 12:27:00,52.0,32.9,29.91,NNW,328,2.7,5.8,48,0.00,,---,0.51,VWS V14.01,2013-06-13 18:27:00,
2013-06-13 12:30:00,51.8,32.2,29.91,North,357,5.8,7.6,47,0.00,,---,0.00,VWS V14.01,2013-06-13 18:30:00,
2013-06-13 12:31:00,51.8,32.2,29.91,NNW,348,4.9,7.6,47,0.00,,---,0.00,VWS V14.01,2013-06-13 18:31:00,
2013-06-13 12:32:00,51.8,32.2,29.91,North,7,3.1,7.6,47,0.00,,---,0.00,VWS V14.01,2013-06-13 18:32:00,
2013-06-13 12:35:00,51.8,32.2,29.91,North,357,3.1,7.6,47,0.00,,---,0.00,VWS V14.01,2013-06-13 18:35:00,
2013-06-13 12:36:00,51.8,32.2,29.91,North,357,2.7,7.6,47,0.00,,---,0.00,VWS V14.01,2013-06-13 18:36:00,
2013-06-13 12:38:00,52.0,32.9,29.91,NNW,342,2.2,7.6,48,0.00,,---,0.00,VWS V14.01,2013-06-13 18:38:00,
2013-06-13 12:41:00,52.2,32.6,29.91,NNW,329,2.2,7.6,47,0.00,,---,0.00,VWS V14.01,2013-06-13 18:41:00,
2013-06-13 12:43:00,52.2,32.0,29.91,NW,315,3.1,7.6,46,0.00,,---,0.51,VWS V14.01,2013-06-13 18:43:00,
2013-06-13 12:46:00,52.3,31.6,29.91,NW,316,2.7,2.7,45,0.00,,---,0.00,VWS V14.01,2013-06-13 18:46:00,
2013-06-13 12:47:00,52.5,32.3,29.91,NW,316,0.0,2.7,46,0.00,,---,0.00,VWS V14.01,2013-06-13 18:47:00,
2013-06-13 12:48:00,52.5,32.3,29.91,NW,316,0.0,2.7,46,0.00,,---,0.51,VWS V14.01,2013-06-13 18:48:00,
2013-06-13 12:49:00,52.5,32.3,29.91,NW,317,2.7,2.7,46,0.00,,---,0.00,VWS V14.01,2013-06-13 18:49:00,
2013-06-13 12:51:00,52.7,32.5,29.91,NW,309,2.7,3.1,46,0.00,,---,0.00,VWS V14.01,2013-06-13 18:51:00,
2013-06-13 12:52:00,52.7,32.5,29.91,North,7,3.6,3.6,46,0.00,,---,0.00,VWS V14.01,2013-06-13 18:52:00,
2013-06-13 12:53:00,52.7,32.0,29.91,NNW,344,2.7,4.0,45,0.00,,---,0.00,VWS V14.01,2013-06-13 18:53:00,
2013-06-13 12:54:00,52.7,32.5,29.91,NNW,348,3.6,4.0,46,0.00,,---,0.00,VWS V14.01,2013-06-13 18:54:00,
2013-06-13 12:56:00,52.7,32.5,29.91,NNW,343,3.1,4.5,46,0.00,,---,0.00,VWS V14.01,2013-06-13 18:56:00,
2013-06-13 12:57:00,52.7,32.5,29.91,NNW,332,3.6,4.5,46,0.00,,---,0.00,VWS V14.01,2013-06-13 18:57:00,
2013-06-13 12:58:00,52.7,32.5,29.91,North,353,3.6,4.5,46,0.00,,---,0.00,VWS V14.01,2013-06-13 18:58:00,
2013-06-13 12:59:00,52.7,32.0,29.91,North,353,2.2,4.5,45,0.00,,---,0.51,VWS V14.01,2013-06-13 18:59:00,
2013-06-13 13:01:00,52.7,32.5,29.91,NW,321,2.2,4.9,46,0.00,,---,0.00,VWS V14.01,2013-06-13 19:01:00,
2013-06-13 13:02:00,52.9,33.2,29.91,NW,307,0.0,4.9,47,0.00,,---,0.00,VWS V14.01,2013-06-13 19:02:00,
2013-06-13 13:03:00,52.9,33.2,29.91,NW,307,3.1,4.9,47,0.00,,---,0.00,VWS V14.01,2013-06-13 19:03:00,
2013-06-13 13:04:00,52.9,32.7,29.91,North,0,3.6,4.9,46,0.00,,---,0.00,VWS V14.01,2013-06-13 19:04:00,
2013-06-13 13:06:00,52.9,32.1,29.91,NW,312,4.0,5.4,45,0.00,,---,0.00,VWS V14.01,2013-06-13 19:06:00,
2013-06-13 13:07:00,52.7,32.0,29.91,NNW,336,4.0,5.4,45,0.00,,---,0.00,VWS V14.01,2013-06-13 19:07:00,
2013-06-13 13:08:00,52.7,32.0,29.91,NNW,342,3.1,5.4,45,0.00,,---,0.00,VWS V14.01,2013-06-13 19:08:00,
2013-06-13 13:09:00,52.5,32.3,29.91,North,0,4.0,5.4,46,0.00,,---,0.00,VWS V14.01,2013-06-13 19:09:00,
2013-06-13 13:11:00,52.3,32.7,29.91,NNW,334,4.0,5.4,47,0.00,,---,0.00,VWS V14.01,2013-06-13 19:11:00,
2013-06-13 13:12:00,52.3,32.7,29.91,North,350,5.4,5.4,47,0.00,,---,0.00,VWS V14.01,2013-06-13 19:12:00,
2013-06-13 13:13:00,52.2,32.0,29.91,NW,314,2.7,5.4,46,0.00,,---,0.00,VWS V14.01,2013-06-13 19:13:00,
2013-06-13 13:14:00,52.2,32.6,29.91,NW,311,2.7,5.4,47,0.00,,---,0.00,VWS V14.01,2013-06-13 19:14:00,
2013-06-13 13:16:00,52.0,31.9,29.91,NW,308,3.1,3.6,46,0.00,,---,0.00,VWS V14.01,2013-06-13 19:16:00,
2013-06-13 13:17:00,52.2,32.6,29.91,WNW,298,4.0,4.0,47,0.00,,---,0.00,VWS V14.01,2013-06-13 19:17:00,
2013-06-13 13:18:00,52.2,32.6,29.91,WNW,289,2.2,4.0,47,0.00,,---,0.00,VWS V14.01,2013-06-13 19:18:00,
2013-06-13 13:19:00,52.2,32.6,29.91,WNW,289,2.7,4.0,47,0.00,,---,0.00,VWS V14.01,2013-06-13 19:19:00,
2013-06-13 13:20:00,52.0,32.4,29.91,WNW,289,3.1,4.0,47,0.00,,---,0.00,VWS V14.01,2013-06-13 19:20:00,
2013-06-13 13:22:00,52.0,32.9,29.91,WNW,286,4.0,4.0,48,0.00,,---,0.00,VWS V14.01,2013-06-13 19:22:00,
2013-06-13 13:23:00,51.8,32.2,29.91,WNW,285,3.1,4.0,47,0.00,,---,0.00,VWS V14.01,2013-06-13 19:23:00,
2013-06-13 13:24:00,51.8,32.2,29.91,WNW,284,3.6,4.9,47,0.00,,---,0.51,VWS V14.01,2013-06-13 19:24:00,
2013-06-13 13:25:00,51.4,31.4,29.91,WNW,293,2.7,5.8,46,0.00,,---,0.00,VWS V14.01,2013-06-13 19:25:00,
2013-06-13 13:27:00,51.3,31.7,29.91,WNW,283,4.0,5.8,47,0.00,,---,0.00,VWS V14.01,2013-06-13 19:27:00,
2013-06-13 13:28:00,51.3,32.3,29.91,NW,326,2.2,5.8,48,0.00,,---,0.00,VWS V14.01,2013-06-13 19:28:00,
2013-06-13 13:29:00,51.1,32.1,29.91,WNW,288,3.1,5.8,48,0.00,,---,0.00,VWS V14.01,2013-06-13 19:29:00,
2013-06-13 13:30:00,51.1,32.1,29.91,WNW,288,2.7,5.8,48,0.00,,---,0.00,VWS V14.01,2013-06-13 19:30:00,
2013-06-13 13:33:00,50.9,32.9,29.94,NW,315,3.1,4.9,50,0.00,,---,0.00,VWS V14.01,2013-06-13 19:33:00,
2013-06-13 13:34:00,50.7,31.8,29.94,North,357,3.1,4.9,48,0.00,,---,0.51,VWS V14.01,2013-06-13 19:34:00,
2013-06-13 13:35:00,50.7,31.8,29.94,North,357,2.7,4.9,48,0.00,,---,0.00,VWS V14.01,2013-06-13 19:35:00,
2013-06-13 13:38:00,50.7,32.8,29.94,West,268,2.7,4.9,50,0.00,,---,0.00,VWS V14.01,2013-06-13 19:38:00,
2013-06-13 13:39:00,50.4,31.9,29.94,West,264,3.1,5.8,49,0.00,,---,0.51,VWS V14.01,2013-06-13 19:39:00,
2013-06-13 13:40:00,50.4,31.9,29.94,West,264,3.1,5.8,49,0.00,,---,0.00,VWS V14.01,2013-06-13 19:40:00,
2013-06-13 13:43:00,50.2,32.8,29.94,NNW,328,2.7,5.8,51,0.00,,---,0.00,VWS V14.01,2013-06-13 19:43:00,
2013-06-13 13:44:00,50.2,32.8,29.94,NNW,328,0.0,5.8,51,0.00,,---,0.00,VWS V14.01,2013-06-13 19:44:00,
2013-06-13 13:45:00,50.2,32.8,29.94,NNW,346,3.1,5.8,51,0.00,,---,0.00,VWS V14.01,2013-06-13 19:45:00,
2013-06-13 13:48:00,50.7,35.6,29.94,North,353,3.6,4.0,56,0.00,,---,0.00,VWS V14.01,2013-06-13 19:48:00,
2013-06-13 13:49:00,50.7,35.6,29.94,NNW,327,4.9,6.3,56,0.00,,---,0.00,VWS V14.01,2013-06-13 19:49:00,
2013-06-13 13:50:00,50.7,35.2,29.94,NNW,336,4.0,6.3,55,0.00,,---,0.00,VWS V14.01,2013-06-13 19:50:00,
2013-06-13 13:51:00,50.7,35.2,29.94,North,353,2.7,6.3,55,0.00,,---,0.00,VWS V14.01,2013-06-13 19:51:00,
2013-06-13 13:53:00,50.9,36.7,29.94,NW,324,2.7,6.3,58,0.00,,---,0.00,VWS V14.01,2013-06-13 19:53:00,
2013-06-13 13:54:00,51.1,36.8,29.94,NW,313,3.6,6.3,58,0.00,,---,0.00,VWS V14.01,2013-06-13 19:54:00,
2013-06-13 13:55:00,50.9,35.8,29.94,WNW,300,2.7,6.3,56,0.00,,---,0.00,VWS V14.01,2013-06-13 19:55:00,
2013-06-13 13:56:00,50.9,35.8,29.94,WNW,285,2.7,6.3,56,0.00,,---,0.51,VWS V14.01,2013-06-13 19:56:00,
2013-06-13 13:58:00,51.1,36.4,29.94,WNW,284,3.6,6.3,57,0.00,,---,0.00,VWS V14.01,2013-06-13 19:58:00,
2013-06-13 13:59:00,50.9,34.4,29.94,WNW,284,2.7,6.3,53,0.00,,---,0.00,VWS V14.01,2013-06-13 19:59:00,
2013-06-13 14:01:00,51.1,35.5,29.94,WNW,284,0.0,2.7,55,0.00,,---,0.00,VWS V14.01,2013-06-13 20:01:00,
2013-06-13 14:03:00,51.1,35.5,29.94,WNW,284,0.0,2.7,55,0.00,,---,0.00,VWS V14.01,2013-06-13 20:03:00,
2013-06-13 14:04:00,51.1,35.5,29.94,WNW,284,0.0,2.7,55,0.00,,---,0.00,VWS V14.01,2013-06-13 20:04:00,
2013-06-13 14:06:00,51.1,35.5,29.94,WNW,286,0.0,2.7,55,0.00,,---,0.00,VWS V14.01,2013-06-13 20:06:00,
2013-06-13 14:07:00,51.1,35.5,29.94,WNW,300,0.0,2.7,55,0.00,,---,0.51,VWS V14.01,2013-06-13 20:07:00,
2013-06-13 14:09:00,50.9,33.9,29.94,NW,305,0.0,3.1,52,0.00,,---,0.00,VWS V14.01,2013-06-13 20:09:00,
2013-06-13 14:10:00,51.1,33.6,29.94,NW,304,2.2,3.1,51,0.00,,---,0.00,VWS V14.01,2013-06-13 20:10:00,
2013-06-13 14:12:00,51.3,34.2,29.94,NW,317,0.0,3.1,52,0.00,,---,0.00,VWS V14.01,2013-06-13 20:12:00,
2013-06-13 14:14:00,51.4,34.9,29.94,NW,315,0.0,3.1,53,0.00,,---,0.00,VWS V14.01,2013-06-13 20:14:00,
2013-06-13 14:15:00,51.6,35.1,29.94,North,357,3.6,3.6,53,0.00,,---,0.51,VWS V14.01,2013-06-13 20:15:00,
2013-06-13 14:17:00,51.6,34.1,29.94,North,1,2.7,4.0,51,0.00,,---,0.00,VWS V14.01,2013-06-13 20:17:00,
2013-06-13 14:19:00,51.4,33.9,29.94,NW,316,3.1,4.0,51,0.00,,---,0.00,VWS V14.01,2013-06-13 20:19:00,
2013-06-13 14:20:00,51.4,33.9,29.94,NW,316,0.0,4.0,51,0.00,,---,0.00,VWS V14.01,2013-06-13 20:20:00,
2013-06-13 14:22:00,51.4,34.4,29.94,NW,306,0.0,4.0,52,0.00,,---,0.00,VWS V14.01,2013-06-13 20:22:00,
2013-06-13 14:24:00,51.3,34.2,29.94,NNW,344,0.0,4.0,52,0.00,,---,0.00,VWS V14.01,2013-06-13 20:24:00,
2013-06-13 14:25:00,51.1,34.6,29.94,NNW,344,0.0,4.0,53,0.00,,---,0.00,VWS V14.01,2013-06-13 20:25:00,
2013-06-13 14:27:00,51.1,35.0,29.94,WNW,286,0.0,4.0,54,0.00,,---,0.00,VWS V14.01,2013-06-13 20:27:00,
2013-06-13 14:30:00,51.1,35.5,29.94,West,277,2.2,3.6,55,0.00,,---,0.00,VWS V14.01,2013-06-13 20:30:00,
2013-06-13 14:31:00,50.9,33.9,29.94,West,277,2.2,3.6,52,0.00,,---,0.00,VWS V14.01,2013-06-13 20:31:00,
2013-06-13 14:32:00,50.9,33.9,29.94,West,277,2.7,3.6,52,0.00,,---,0.51,VWS V14.01,2013-06-13 20:32:00,
2013-06-13 14:35:00,50.7,34.2,29.94,North,349,3.6,3.6,53,0.00,,---,0.00,VWS V14.01,2013-06-13 20:35:00,
2013-06-13 14:36:00,50.5,34.1,29.94,North,353,2.7,3.6,53,0.00,,---,0.00,VWS V14.01,2013-06-13 20:36:00,
2013-06-13 14:37:00,50.5,34.1,29.94,North,353,2.7,3.6,53,0.00,,---,0.00,VWS V14.01,2013-06-13 20:37:00,
2013-06-13 14:38:00,50.4,33.9,29.94,North,353,2.2,3.6,53,0.00,,---,0.00,VWS V14.01,2013-06-13 20:38:00,
2013-06-13 14:40:00,50.2,33.7,29.94,North,353,0.0,3.6,53,0.00,,---,0.00,VWS V14.01,2013-06-13 20:40:00,
2013-06-13 14:41:00,50.2,34.2,29.94,North,0,2.2,3.6,54,0.00,,---,0.00,VWS V14.01,2013-06-13 20:41:00,
2013-06-13 14:43:00,50.2,34.7,29.94,West,276,2.2,3.6,55,0.00,,---,0.00,VWS V14.01,2013-06-13 20:43:00,
2013-06-13 14:46:00,49.8,34.8,29.94,West,276,0.0,2.2,56,0.00,,---,0.00,VWS V14.01,2013-06-13 20:46:00,
2013-06-13 14:47:00,49.8,35.2,29.94,West,275,2.7,3.1,57,0.00,,---,0.00,VWS V14.01,2013-06-13 20:47:00,
2013-06-13 14:48:00,49.8,35.7,29.94,West,273,3.6,3.6,58,0.00,,---,0.00,VWS V14.01,2013-06-13 20:48:00,
2013-06-13 14:49:00,49.8,35.7,29.94,West,273,4.0,5.8,58,0.00,,---,0.00,VWS V14.01,2013-06-13 20:49:00,
2013-06-13 14:51:00,49.5,34.0,29.94,NW,311,4.0,5.8,55,0.00,,---,0.51,VWS V14.01,2013-06-13 20:51:00,
2013-06-13 14:52:00,49.5,35.3,29.94,West,263,4.0,6.3,58,0.00,,---,0.00,VWS V14.01,2013-06-13 20:52:00,
2013-06-13 14:53:00,49.1,34.1,29.94,West,261,3.1,6.3,56,0.00,,---,0.00,VWS V14.01,2013-06-13 20:53:00,
2013-06-13 14:54:00,49.1,34.1,29.94,West,260,3.1,6.3,56,0.00,,---,0.00,VWS V14.01,2013-06-13 20:54:00,
2013-06-13 14:56:00,48.9,34.8,29.94,WNW,301,0.0,6.3,58,0.00,,---,0.00,VWS V14.01,2013-06-13 20:56:00,
2013-06-13 14:57:00,48.7,34.6,29.94,WSW,253,0.0,6.3,58,0.04,,---,0.04,VWS V14.01,2013-06-13 20:57:00,
2013-06-13 14:59:00,48.6,34.0,29.94,South,173,0.0,6.3,57,0.04,,---,0.04,VWS V14.01,2013-06-13 20:59:00,
2013-06-13 15:01:00,48.2,33.7,29.94,South,173,0.0,0.0,57,0.04,,---,0.04,VWS V14.01,2013-06-13 21:01:00,
2013-06-13 15:02:00,48.0,35.2,29.94,South,180,2.7,2.7,61,0.04,,---,0.51,VWS V14.01,2013-06-13 21:02:00,
2013-06-13 15:03:00,48.2,37.0,29.94,SSW,199,3.1,3.1,65,0.04,,---,0.04,VWS V14.01,2013-06-13 21:03:00,
2013-06-13 15:04:00,48.0,38.3,29.94,SSW,205,2.7,3.1,69,0.04,,---,0.04,VWS V14.01,2013-06-13 21:04:00,
2013-06-13 15:07:00,47.7,38.4,29.94,SSW,205,0.0,3.1,70,0.04,,---,0.04,VWS V14.01,2013-06-13 21:07:00,
2013-06-13 15:08:00,47.5,38.6,29.94,SSW,205,0.0,3.1,71,0.08,,---,0.08,VWS V14.01,2013-06-13 21:08:00,
2013-06-13 15:09:00,47.3,38.4,29.94,SSW,205,0.0,3.1,71,0.08,,---,0.08,VWS V14.01,2013-06-13 21:09:00,
2013-06-13 15:10:00,47.3,38.4,29.94,SSW,205,0.0,3.1,71,0.08,,---,0.08,VWS V14.01,2013-06-13 21:10:00,
2013-06-13 15:12:00,47.5,39.3,29.94,SSW,205,2.7,3.1,73,0.08,,---,0.08,VWS V14.01,2013-06-13 21:12:00,
2013-06-13 15:13:00,47.5,39.6,29.94,SSW,208,0.0,3.1,74,0.08,,---,0.51,VWS V14.01,2013-06-13 21:13:00,
2013-06-13 15:14:00,47.3,39.5,29.94,SSW,208,0.0,3.1,74,0.08,,---,0.08,VWS V14.01,2013-06-13 21:14:00,
2013-06-13 15:15:00,47.3,39.5,29.94,SSW,208,0.0,0.0,74,0.08,,---,0.08,VWS V14.01,2013-06-13 21:15:00,
2013-06-13 15:17:00,47.3,39.8,29.94,SSW,209,0.0,3.6,75,0.08,,---,0.08,VWS V14.01,2013-06-13 21:17:00,
2013-06-13 15:18:00,47.3,39.8,29.97,SW,235,2.7,3.6,75,0.08,,---,0.08,VWS V14.01,2013-06-13 21:18:00,
2013-06-13 15:19:00,47.1,39.3,29.97,SW,235,0.0,3.6,74,0.08,,---,0.08,VWS V14.01,2013-06-13 21:19:00,
2013-06-13 15:21:00,47.1,39.6,29.97,SW,235,0.0,3.6,75,0.08,,---,0.08,VWS V14.01,2013-06-13 21:21:00,
2013-06-13 15:22:00,46.9,39.8,29.97,SW,218,2.7,3.6,76,0.08,,---,0.08,VWS V14.01,2013-06-13 21:22:00,
2013-06-13 15:23:00,46.9,39.8,29.97,SW,216,3.1,3.6,76,0.08,,---,0.08,VWS V14.01,2013-06-13 21:23:00,
2013-06-13 15:25:00,46.9,40.1,29.97,SSW,205,0.0,3.6,77,0.08,,---,0.08,VWS V14.01,2013-06-13 21:25:00,
2013-06-13 15:27:00,46.9,39.8,29.97,SSW,205,0.0,3.6,76,0.08,,---,0.08,VWS V14.01,2013-06-13 21:27:00,
2013-06-13 15:28:00,46.9,40.1,29.97,SSW,205,0.0,3.6,77,0.08,,---,0.51,VWS V14.01,2013-06-13 21:28:00,
2013-06-13 15:31:00,46.9,40.1,29.97,SSW,203,0.0,3.6,77,0.08,,---,0.08,VWS V14.01,2013-06-13 21:31:00,
2013-06-13 15:32:00,46.9,40.5,29.97,SSW,203,2.2,3.6,78,0.08,,---,0.08,VWS V14.01,2013-06-13 21:32:00,
2013-06-13 15:33:00,46.9,40.5,29.97,SSW,206,2.7,3.6,78,0.08,,---,0.08,VWS V14.01,2013-06-13 21:33:00,
2013-06-13 15:34:00,46.9,40.5,29.97,SSW,206,0.0,3.6,78,0.08,,---,0.08,VWS V14.01,2013-06-13 21:34:00,
2013-06-13 15:36:00,46.9,40.5,29.97,SSW,206,0.0,3.6,78,0.08,,---,0.08,VWS V14.01,2013-06-13 21:36:00,
2013-06-13 15:37:00,47.1,41.0,29.97,SSW,206,2.2,3.6,79,0.08,,---,0.08,VWS V14.01,2013-06-13 21:37:00,
2013-06-13 15:38:00,47.1,40.6,29.97,SSW,206,2.7,3.6,78,0.08,,---,0.51,VWS V14.01,2013-06-13 21:38:00,
2013-06-13 15:39:00,47.1,40.6,29.97,SSW,206,2.2,3.6,78,0.08,,---,0.08,VWS V14.01,2013-06-13 21:39:00,
2013-06-13 15:41:00,47.3,40.8,29.97,SSW,202,2.2,3.6,78,0.08,,---,0.08,VWS V14.01,2013-06-13 21:41:00,
2013-06-13 15:42:00,47.5,41.0,29.97,SSW,202,2.2,3.6,78,0.08,,---,0.08,VWS V14.01,2013-06-13 21:42:00,
2013-06-13 15:43:00,47.7,41.5,29.97,SSW,203,2.2,3.6,79,0.08,,---,0.08,VWS V14.01,2013-06-13 21:43:00,
2013-06-13 15:44:00,47.8,42.0,29.97,SSW,210,3.1,3.6,80,0.08,,---,0.08,VWS V14.01,2013-06-13 21:44:00,
2013-06-13 15:46:00,48.2,42.7,29.97,SSW,195,2.2,3.1,81,0.08,,---,0.08,VWS V14.01,2013-06-13 21:46:00,
2013-06-13 15:48:00,48.6,43.0,29.94,SSW,200,3.1,3.1,81,0.08,,---,0.08,VWS V14.01,2013-06-13 21:48:00,
2013-06-13 15:49:00,48.6,43.0,29.94,SSW,200,0.0,3.1,81,0.08,,---,0.08,VWS V14.01,2013-06-13 21:49:00,
2013-06-13 15:51:00,49.3,43.7,29.94,SSW,198,0.0,3.1,81,0.08,,---,0.08,VWS V14.01,2013-06-13 21:51:00,
2013-06-13 15:53:00,49.8,44.2,29.94,SSW,196,2.7,3.1,81,0.08,,---,0.08,VWS V14.01,2013-06-13 21:53:00,
2013-06-13 15:54:00,50.0,44.4,29.94,SSW,197,3.1,3.1,81,0.08,,---,0.08,VWS V14.01,2013-06-13 21:54:00,
2013-06-13 15:56:00,50.4,44.4,29.94,SSW,205,0.0,3.6,80,0.08,,---,0.08,VWS V14.01,2013-06-13 21:56:00,
2013-06-13 15:58:00,50.4,43.8,29.94,SSE,167,3.1,3.6,78,0.08,,---,0.08,VWS V14.01,2013-06-13 21:58:00,
2013-06-13 15:59:00,50.4,43.8,29.94,SSW,197,2.7,3.6,78,0.08,,---,0.08,VWS V14.01,2013-06-13 21:59:00,
2013-06-13 16:01:00,50.2,42.2,29.94,NW,315,0.0,3.1,74,0.04,,---,0.08,VWS V14.01,2013-06-13 22:01:00,
2013-06-13 16:03:00,50.2,41.5,29.94,NNW,336,0.0,3.1,72,0.04,,---,0.51,VWS V14.01,2013-06-13 22:03:00,
2013-06-13 16:04:00,50.2,41.2,29.94,NNW,328,0.0,3.1,71,0.04,,---,0.08,VWS V14.01,2013-06-13 22:04:00,
2013-06-13 16:06:00,50.2,40.4,29.94,SSW,213,0.0,3.6,69,0.04,,---,0.08,VWS V14.01,2013-06-13 22:06:00,
2013-06-13 16:09:00,50.2,39.7,29.94,SSW,201,2.7,3.6,67,0.04,,---,0.08,VWS V14.01,2013-06-13 22:09:00,
2013-06-13 16:10:00,50.2,39.3,29.94,SSW,201,2.2,3.6,66,0.04,,---,0.08,VWS V14.01,2013-06-13 22:10:00,
2013-06-13 16:12:00,50.2,38.9,29.94,SSW,201,0.0,3.6,65,0.04,,---,0.08,VWS V14.01,2013-06-13 22:12:00,
2013-06-13 16:14:00,50.5,39.2,29.94,SSW,201,0.0,3.6,65,0.04,,---,0.08,VWS V14.01,2013-06-13 22:14:00,
2013-06-13 16:15:00,50.5,39.2,29.94,SSW,201,0.0,3.6,65,0.04,,---,0.08,VWS V14.01,2013-06-13 22:15:00,
2013-06-13 16:17:00,51.1,40.5,29.94,SSW,196,0.0,2.7,67,0.00,,---,0.08,VWS V14.01,2013-06-13 22:17:00,
2013-06-13 16:19:00,51.3,39.1,29.94,SSW,195,0.0,3.6,63,0.00,,---,0.08,VWS V14.01,2013-06-13 22:19:00,
2013-06-13 16:20:00,51.3,39.1,29.94,SSW,195,0.0,3.6,63,0.00,,---,0.08,VWS V14.01,2013-06-13 22:20:00,
2013-06-13 16:22:00,51.6,39.5,29.94,West,273,0.0,3.6,63,0.00,,---,0.08,VWS V14.01,2013-06-13 22:22:00,
2013-06-13 16:24:00,52.2,39.1,29.94,West,273,0.0,3.6,61,0.00,,---,0.08,VWS V14.01,2013-06-13 22:24:00,
2013-06-13 16:25:00,52.2,39.1,29.94,NW,305,0.0,3.6,61,0.00,,---,0.08,VWS V14.01,2013-06-13 22:25:00,
2013-06-13 16:26:00,52.3,38.5,29.94,WNW,289,0.0,3.6,59,0.00,,---,0.08,VWS V14.01,2013-06-13 22:26:00,
2013-06-13 16:27:00,52.7,38.8,29.94,SW,220,0.0,3.6,59,0.00,,---,0.08,VWS V14.01,2013-06-13 22:27:00,
2013-06-13 16:29:00,52.9,39.0,29.94,NW,309,0.0,3.6,59,0.00,,---,0.08,VWS V14.01,2013-06-13 22:29:00,
2013-06-13 16:30:00,53.2,38.0,29.94,South,184,2.2,4.5,56,0.00,,---,0.08,VWS V14.01,2013-06-13 22:30:00,
2013-06-13 16:31:00,53.2,37.5,29.94,SSE,168,3.1,4.5,55,0.00,,---,0.51,VWS V14.01,2013-06-13 22:31:00,
2013-06-13 16:32:00,53.4,37.2,29.94,South,169,2.7,4.5,54,0.00,,---,0.08,VWS V14.01,2013-06-13 22:32:00,
2013-06-13 16:34:00,53.8,37.5,29.94,WNW,301,0.0,4.5,54,0.00,,---,0.08,VWS V14.01,2013-06-13 22:34:00,
2013-06-13 16:36:00,54.3,37.6,29.94,West,261,2.7,4.5,53,0.00,,---,0.08,VWS V14.01,2013-06-13 22:36:00,
2013-06-13 16:37:00,54.5,38.2,29.94,South,189,4.0,4.5,54,0.00,,---,0.08,VWS V14.01,2013-06-13 22:37:00,
2013-06-13 16:39:00,55.0,36.8,29.94,West,277,0.0,4.5,50,0.00,,---,0.08,VWS V14.01,2013-06-13 22:39:00,
2013-06-13 16:41:00,55.2,36.9,29.94,SSW,197,3.6,4.5,50,0.00,,---,0.08,VWS V14.01,2013-06-13 22:41:00,
2013-06-13 16:42:00,55.0,35.7,29.94,SSW,197,2.7,4.5,48,0.00,,---,0.08,VWS V14.01,2013-06-13 22:42:00,
2013-06-13 16:44:00,55.0,36.2,29.94,SSW,201,2.2,4.5,49,0.00,,---,0.08,VWS V14.01,2013-06-13 22:44:00,
2013-06-13 16:46:00,55.0,36.2,29.94,SSW,202,4.0,5.4,49,0.00,,---,0.08,VWS V14.01,2013-06-13 22:46:00,
2013-06-13 16:47:00,55.0,36.2,29.94,SW,219,0.0,5.4,49,0.00,,---,0.08,VWS V14.01,2013-06-13 22:47:00,
2013-06-13 16:48:00,55.0,36.2,29.94,South,184,3.1,5.4,49,0.00,,---,0.08,VWS V14.01,2013-06-13 22:48:00,
2013-06-13 16:49:00,55.2,35.9,29.94,SSW,209,5.8,5.8,48,0.00,,---,0.08,VWS V14.01,2013-06-13 22:49:00,
2013-06-13 16:50:00,55.2,35.9,29.94,SSW,202,5.4,5.8,48,0.00,,---,0.51,VWS V14.01,2013-06-13 22:50:00,
2013-06-13 16:51:00,55.2,35.9,29.94,WNW,287,4.0,5.8,48,0.00,,---,0.08,VWS V14.01,2013-06-13 22:51:00,
2013-06-13 16:52:00,55.4,37.6,29.94,WNW,288,2.2,5.8,51,0.00,,---,0.08,VWS V14.01,2013-06-13 22:52:00,
2013-06-13 16:53:00,55.2,35.4,29.94,South,186,3.1,5.8,47,0.00,,---,0.08,VWS V14.01,2013-06-13 22:53:00,
2013-06-13 16:55:00,55.0,35.2,29.94,South,189,0.0,5.8,47,0.00,,---,0.51,VWS V14.01,2013-06-13 22:55:00,
2013-06-13 16:57:00,55.2,36.9,29.94,SW,221,3.1,5.8,50,0.00,,---,0.51,VWS V14.01,2013-06-13 22:57:00,
2013-06-13 16:58:00,55.2,37.4,29.94,SW,225,2.7,5.8,51,0.00,,---,0.08,VWS V14.01,2013-06-13 22:58:00,
2013-06-13 17:00:00,54.7,34.9,29.94,SSW,202,2.7,2.7,47,0.00,,---,0.51,VWS V14.01,2013-06-13 23:00:00,
2013-06-13 17:02:00,54.5,34.7,29.94,SSW,212,3.6,8.1,47,0.00,,---,0.08,VWS V14.01,2013-06-13 23:02:00,
2013-06-13 17:04:00,54.7,36.4,29.94,South,190,3.1,8.1,50,0.00,,---,0.08,VWS V14.01,2013-06-13 23:04:00,
2013-06-13 17:05:00,54.3,35.6,29.94,SSW,200,2.7,8.1,49,0.00,,---,0.51,VWS V14.01,2013-06-13 23:05:00,
2013-06-13 17:07:00,54.7,36.4,29.94,SSW,197,3.6,8.1,50,0.00,,---,0.08,VWS V14.01,2013-06-13 23:07:00,
2013-06-13 17:09:00,54.9,36.6,29.94,WSW,241,2.2,8.1,50,0.00,,---,0.08,VWS V14.01,2013-06-13 23:09:00,
2013-06-13 17:10:00,55.2,37.4,29.94,WSW,241,3.1,8.1,51,0.00,,---,0.08,VWS V14.01,2013-06-13 23:10:00,
2013-06-13 17:12:00,55.6,35.2,29.94,SSW,213,3.1,8.1,46,0.00,,---,0.08,VWS V14.01,2013-06-13 23:12:00,
2013-06-13 17:13:00,55.6,35.2,29.94,SSW,213,2.7,8.1,46,0.00,,---,0.08,VWS V14.01,2013-06-13 23:13:00,
2013-06-13 17:14:00,55.8,34.8,29.94,SSW,206,0.0,8.1,45,0.00,,---,0.08,VWS V14.01,2013-06-13 23:14:00,
2013-06-13 17:15:00,55.9,35.5,29.94,SSW,206,0.0,8.1,46,0.00,,---,0.08,VWS V14.01,2013-06-13 23:15:00,
2013-06-13 17:17:00,56.5,36.5,29.94,SSW,193,2.2,3.6,47,0.00,,---,0.08,VWS V14.01,2013-06-13 23:17:00,
2013-06-13 17:18:00,56.5,35.4,29.94,SSW,193,2.2,3.6,45,0.00,,---,0.08,VWS V14.01,2013-06-13 23:18:00,
2013-06-13 17:19:00,56.8,33.4,29.94,West,268,4.9,5.4,41,0.00,,---,0.08,VWS V14.01,2013-06-13 23:19:00,
2013-06-13 17:20:00,56.8,33.4,29.94,WSW,248,5.8,5.8,41,0.00,,---,0.08,VWS V14.01,2013-06-13 23:20:00,
2013-06-13 17:22:00,57.0,33.6,29.94,SSW,203,3.6,5.8,41,0.00,,---,0.08,VWS V14.01,2013-06-13 23:22:00,
2013-06-13 17:23:00,56.8,34.0,29.94,SW,220,4.0,5.8,42,0.00,,---,0.08,VWS V14.01,2013-06-13 23:23:00,
2013-06-13 17:24:00,56.7,33.2,29.94,SSW,194,2.7,5.8,41,0.00,,---,0.51,VWS V14.01,2013-06-13 23:24:00,
2013-06-13 17:25:00,56.7,33.2,29.94,SSW,195,5.4,5.8,41,0.00,,---,0.08,VWS V14.01,2013-06-13 23:25:00,
2013-06-13 17:27:00,55.9,33.2,29.94,SSW,205,3.6,5.8,42,0.00,,---,0.08,VWS V14.01,2013-06-13 23:27:00,
2013-06-13 17:28:00,55.9,33.2,29.94,SW,221,3.1,5.8,42,0.00,,---,0.08,VWS V14.01,2013-06-13 23:28:00,
2013-06-13 17:30:00,55.8,33.6,29.94,WSW,251,2.2,5.8,43,0.00,,---,0.08,VWS V14.01,2013-06-13 23:30:00,
2013-06-13 17:33:00,55.8,33.0,29.94,South,184,2.7,4.0,42,0.00,,---,0.08,VWS V14.01,2013-06-13 23:33:00,
2013-06-13 17:34:00,55.8,32.4,29.94,South,184,3.1,4.0,41,0.00,,---,0.08,VWS V14.01,2013-06-13 23:34:00,
2013-06-13 17:35:00,55.8,32.4,29.94,WSW,257,2.7,4.0,41,0.00,,---,0.08,VWS V14.01,2013-06-13 23:35:00,
2013-06-13 17:36:00,56.3,33.5,29.94,West,261,2.2,4.0,42,0.00,,---,0.08,VWS V14.01,2013-06-13 23:36:00,
2013-06-13 17:38:00,56.3,32.9,29.94,West,269,2.7,4.0,41,0.00,,---,0.08,VWS V14.01,2013-06-13 23:38:00,
2013-06-13 17:39:00,56.3,31.7,29.94,West,280,2.7,4.0,39,0.00,,---,0.51,VWS V14.01,2013-06-13 23:39:00,
2013-06-13 17:40:00,56.3,31.0,29.94,NW,305,3.1,4.0,38,0.00,,---,0.08,VWS V14.01,2013-06-13 23:40:00,
2013-06-13 17:41:00,56.1,30.9,29.94,NW,323,0.0,4.0,38,0.00,,---,0.08,VWS V14.01,2013-06-13 23:41:00,
2013-06-13 17:43:00,55.9,31.4,29.94,NW,323,0.0,4.0,39,0.00,,---,0.08,VWS V14.01,2013-06-13 23:43:00,
2013-06-13 17:44:00,55.9,31.4,29.94,NW,324,0.0,4.0,39,0.00,,---,0.08,VWS V14.01,2013-06-13 23:44:00,
2013-06-13 17:45:00,55.8,31.2,29.94,WNW,300,2.7,2.7,39,0.00,,---,0.08,VWS V14.01,2013-06-13 23:45:00,
2013-06-13 17:46:00,55.8,31.2,29.94,NW,321,0.0,2.7,39,0.00,,---,0.08,VWS V14.01,2013-06-13 23:46:00,
2013-06-13 17:48:00,55.6,30.4,29.94,SSW,204,2.7,2.7,38,0.00,,---,0.08,VWS V14.01,2013-06-13 23:48:00,
2013-06-13 17:50:00,55.4,30.9,29.94,SSW,197,0.0,2.7,39,0.00,,---,0.08,VWS V14.01,2013-06-13 23:50:00,
2013-06-13 17:52:00,55.4,32.1,29.94,SSW,199,0.0,2.7,41,0.00,,---,0.08,VWS V14.01,2013-06-13 23:52:00,
2013-06-13 17:53:00,55.2,31.3,29.94,SSW,195,3.6,4.0,40,0.00,,---,0.08,VWS V14.01,2013-06-13 23:53:00,
2013-06-13 17:55:00,55.2,31.3,29.94,SSW,195,3.1,4.0,40,0.00,,---,0.08,VWS V14.01,2013-06-13 23:55:00,
2013-06-13 17:56:00,55.2,31.3,29.94,SSW,195,0.0,4.0,40,0.00,,---,0.08,VWS V14.01,2013-06-13 23:56:00,
2013-06-13 17:57:00,55.2,31.3,29.94,SSW,195,2.7,4.0,40,0.00,,---,0.08,VWS V14.01,2013-06-13 23:57:00,
2013-06-13 17:59:00,55.2,32.0,29.94,WNW,289,2.7,4.0,41,0.00,,---,0.08,VWS V14.01,2013-06-13 23:59:00,
2013-06-13 18:00:00,55.0,31.8,29.94,NW,326,2.2,2.2,41,0.00,,---,0.08,VWS V14.01,2013-06-14 00:00:00,
2013-06-13 18:02:00,54.7,30.2,29.94,North,5,3.1,4.9,39,0.00,,---,0.08,VWS V14.01,2013-06-14 00:02:00,
2013-06-13 18:04:00,54.7,30.2,29.94,West,280,3.1,4.9,39,0.00,,---,0.08,VWS V14.01,2013-06-14 00:04:00,
2013-06-13 18:05:00,54.5,31.9,29.94,SW,231,2.2,4.9,42,0.00,,---,0.08,VWS V14.01,2013-06-14 00:05:00,
2013-06-13 18:07:00,54.5,32.5,29.94,SSW,203,4.0,4.9,43,0.00,,---,0.08,VWS V14.01,2013-06-14 00:07:00,
2013-06-13 18:09:00,54.5,31.9,29.94,SSW,203,0.0,4.9,42,0.00,,---,0.08,VWS V14.01,2013-06-14 00:09:00,
2013-06-13 18:10:00,54.5,32.5,29.94,SW,229,2.2,4.9,43,0.00,,---,0.51,VWS V14.01,2013-06-14 00:10:00,
2013-06-13 18:11:00,54.5,32.5,29.94,SW,229,2.2,4.9,43,0.00,,---,0.08,VWS V14.01,2013-06-14 00:11:00,
2013-06-13 18:12:00,54.3,32.3,29.94,SW,229,0.0,4.9,43,0.00,,---,0.51,VWS V14.01,2013-06-14 00:12:00,
2013-06-13 18:14:00,54.0,30.8,29.94,South,191,4.0,4.9,41,0.00,,---,0.08,VWS V14.01,2013-06-14 00:14:00,
2013-06-13 18:16:00,54.0,30.2,29.94,SSW,193,0.0,2.7,40,0.00,,---,0.08,VWS V14.01,2013-06-14 00:16:00,
2013-06-13 18:17:00,53.8,30.6,29.94,SSW,193,0.0,2.7,41,0.00,,---,0.08,VWS V14.01,2013-06-14 00:17:00,
2013-06-13 18:19:00,53.8,31.2,29.94,SSW,194,4.0,4.0,42,0.00,,---,0.08,VWS V14.01,2013-06-14 00:19:00,
2013-06-13 18:21:00,53.6,31.1,29.94,SSW,194,0.0,4.0,42,0.00,,---,0.08,VWS V14.01,2013-06-14 00:21:00,
2013-06-13 18:22:00,53.4,31.5,29.94,SSW,194,0.0,4.0,43,0.00,,---,0.08,VWS V14.01,2013-06-14 00:22:00,
2013-06-13 18:23:00,53.4,31.5,29.94,SSW,194,0.0,4.0,43,0.00,,---,0.08,VWS V14.01,2013-06-14 00:23:00,
2013-06-13 18:24:00,53.4,32.1,29.94,SSW,194,0.0,4.0,44,0.00,,---,0.51,VWS V14.01,2013-06-14 00:24:00,
2013-06-13 18:26:00,53.2,31.9,29.94,SSW,194,0.0,4.0,44,0.00,,---,0.08,VWS V14.01,2013-06-14 00:26:00,
2013-06-13 18:27:00,53.2,32.5,29.94,SSW,194,0.0,4.0,45,0.00,,---,0.08,VWS V14.01,2013-06-14 00:27:00,
2013-06-13 18:28:00,53.2,32.5,29.94,SSW,194,0.0,4.0,45,0.00,,---,0.08,VWS V14.01,2013-06-14 00:28:00,
2013-06-13 18:30:00,53.2,32.5,29.94,SSW,194,0.0,0.0,45,0.00,,---,0.51,VWS V14.01,2013-06-14 00:30:00,
2013-06-13 18:31:00,53.2,33.0,29.94,SSW,194,0.0,0.0,46,0.00,,---,0.08,VWS V14.01,2013-06-14 00:31:00,
2013-06-13 18:32:00,53.2,33.0,29.94,SSW,194,0.0,0.0,46,0.00,,---,0.08,VWS V14.01,2013-06-14 00:32:00,
2013-06-13 18:36:00,53.1,33.4,29.94,SSW,194,0.0,0.0,47,0.00,,---,0.08,VWS V14.01,2013-06-14 00:36:00,
2013-06-13 18:37:00,53.1,33.4,29.94,SSW,194,0.0,0.0,47,0.00,,---,0.08,VWS V14.01,2013-06-14 00:37:00,
2013-06-13 18:42:00,53.1,32.8,29.94,SSW,197,2.2,3.6,46,0.00,,---,0.08,VWS V14.01,2013-06-14 00:42:00,
2013-06-13 18:43:00,53.1,32.8,29.94,SSW,197,0.0,3.6,46,0.00,,---,0.08,VWS V14.01,2013-06-14 00:43:00,
2013-06-13 18:47:00,53.1,33.4,29.94,SSW,205,0.0,3.1,47,0.00,,---,0.08,VWS V14.01,2013-06-14 00:47:00,
2013-06-13 18:48:00,53.1,33.4,29.94,SSW,205,0.0,3.1,47,0.00,,---,0.08,VWS V14.01,2013-06-14 00:48:00,
2013-06-13 18:52:00,52.9,33.2,29.94,SSW,203,3.1,3.1,47,0.00,,---,0.08,VWS V14.01,2013-06-14 00:52:00,
2013-06-13 18:53:00,53.1,33.4,29.94,SSW,203,2.7,3.1,47,0.00,,---,0.08,VWS V14.01,2013-06-14 00:53:00,
2013-06-13 18:58:00,53.1,33.4,29.94,SSW,203,0.0,3.1,47,0.00,,---,0.08,VWS V14.01,2013-06-14 00:58:00,
2013-06-13 19:03:00,53.2,33.5,29.91,SSW,203,2.2,2.2,47,0.00,,---,0.08,VWS V14.01,2013-06-14 01:03:00,
2013-06-13 19:04:00,53.2,33.5,29.91,SSW,203,2.7,2.7,47,0.00,,---,0.08,VWS V14.01,2013-06-14 01:04:00,
2013-06-13 19:08:00,53.1,33.4,29.91,SSW,203,0.0,2.7,47,0.00,,---,0.08,VWS V14.01,2013-06-14 01:08:00,
2013-06-13 19:09:00,53.1,33.4,29.91,SSW,203,0.0,2.7,47,0.00,,---,0.08,VWS V14.01,2013-06-14 01:09:00,
2013-06-13 19:13:00,52.9,33.2,29.91,SSW,203,2.2,2.7,47,0.00,,---,0.08,VWS V14.01,2013-06-14 01:13:00,
2013-06-13 19:14:00,52.9,33.2,29.91,SSW,203,0.0,2.7,47,0.00,,---,0.08,VWS V14.01,2013-06-14 01:14:00,
2013-06-13 19:18:00,52.7,34.1,29.91,SSW,203,0.0,0.0,49,0.00,,---,0.08,VWS V14.01,2013-06-14 01:18:00,
2013-06-13 19:19:00,52.5,33.9,29.91,SSW,203,0.0,0.0,49,0.00,,---,0.08,VWS V14.01,2013-06-14 01:19:00,
2013-06-13 19:23:00,52.3,33.2,29.91,SSW,203,0.0,0.0,48,0.00,,---,0.08,VWS V14.01,2013-06-14 01:23:00,
2013-06-13 19:24:00,52.3,33.2,29.91,SSW,203,0.0,0.0,48,0.00,,---,0.08,VWS V14.01,2013-06-14 01:24:00,
2013-06-13 19:29:00,52.3,35.2,29.91,SSW,203,0.0,3.1,52,0.00,,---,0.08,VWS V14.01,2013-06-14 01:29:00,
2013-06-13 19:30:00,52.3,35.2,29.91,SSW,203,0.0,3.1,52,0.00,,---,0.08,VWS V14.01,2013-06-14 01:30:00,
2013-06-13 19:34:00,52.0,33.9,29.94,SSW,203,0.0,2.2,50,0.00,,---,0.08,VWS V14.01,2013-06-14 01:34:00,
2013-06-13 19:35:00,52.0,33.9,29.94,SSW,203,0.0,2.2,50,0.00,,---,0.08,VWS V14.01,2013-06-14 01:35:00,
2013-06-13 19:39:00,52.0,34.4,29.94,SSW,203,2.2,2.2,51,0.00,,---,0.08,VWS V14.01,2013-06-14 01:39:00,
2013-06-13 19:40:00,52.0,34.9,29.94,SSW,203,2.7,2.7,52,0.00,,---,0.08,VWS V14.01,2013-06-14 01:40:00,
2013-06-13 19:44:00,51.8,33.8,29.94,SSW,207,0.0,3.1,50,0.00,,---,0.08,VWS V14.01,2013-06-14 01:44:00,
2013-06-13 19:45:00,51.8,33.8,29.94,SSW,207,0.0,3.1,50,0.00,,---,0.08,VWS V14.01,2013-06-14 01:45:00,
2013-06-13 19:49:00,51.6,32.1,29.94,West,261,0.0,3.1,47,0.00,,---,0.08,VWS V14.01,2013-06-14 01:49:00,
2013-06-13 19:50:00,51.6,32.1,29.94,West,261,0.0,3.1,47,0.00,,---,0.08,VWS V14.01,2013-06-14 01:50:00,
2013-06-13 19:54:00,51.8,32.2,29.94,SSW,194,0.0,3.1,47,0.00,,---,0.08,VWS V14.01,2013-06-14 01:54:00,
2013-06-13 19:55:00,52.0,32.4,29.94,SSW,194,2.2,3.1,47,0.00,,---,0.08,VWS V14.01,2013-06-14 01:55:00,
2013-06-13 20:00:00,52.0,32.4,29.94,South,176,0.0,3.1,47,0.00,,---,0.08,VWS V14.01,2013-06-14 02:00:00,
2013-06-13 20:01:00,52.0,32.4,29.94,South,176,0.0,0.0,47,0.00,,---,0.08,VWS V14.01,2013-06-14 02:01:00,
2013-06-13 20:05:00,52.0,32.9,29.97,South,176,0.0,2.7,48,0.00,,---,0.08,VWS V14.01,2013-06-14 02:05:00,
2013-06-13 20:06:00,52.0,32.9,29.97,South,176,0.0,2.7,48,0.00,,---,0.08,VWS V14.01,2013-06-14 02:06:00,
2013-06-13 20:10:00,51.8,33.3,29.97,South,177,2.7,2.7,49,0.00,,---,0.08,VWS V14.01,2013-06-14 02:10:00,
2013-06-13 20:11:00,51.6,33.1,29.97,SSW,201,2.7,3.1,49,0.00,,---,0.08,VWS V14.01,2013-06-14 02:11:00,
2013-06-13 20:15:00,51.4,32.4,29.97,WNW,298,4.0,4.0,48,0.00,,---,0.08,VWS V14.01,2013-06-14 02:15:00,
2013-06-13 20:16:00,51.4,32.4,29.97,NW,313,3.6,4.0,48,0.00,,---,0.08,VWS V14.01,2013-06-14 02:16:00,
2013-06-13 20:17:00,51.3,31.2,29.97,WNW,297,3.1,6.3,46,0.00,,---,0.08,VWS V14.01,2013-06-14 02:17:00,
2013-06-13 20:20:00,51.1,31.6,29.97,WNW,282,4.0,6.3,47,0.00,,---,0.08,VWS V14.01,2013-06-14 02:20:00,
2013-06-13 20:21:00,50.9,31.4,29.97,West,279,4.9,6.3,47,0.00,,---,0.08,VWS V14.01,2013-06-14 02:21:00,
2013-06-13 20:22:00,50.7,31.2,29.97,WNW,303,3.1,6.3,47,0.00,,---,0.08,VWS V14.01,2013-06-14 02:22:00,
2013-06-13 20:25:00,50.2,31.3,29.97,WNW,284,3.1,6.3,48,0.00,,---,0.08,VWS V14.01,2013-06-14 02:25:00,
2013-06-13 20:26:00,50.2,31.3,29.97,West,262,6.3,6.3,48,0.00,,---,0.08,VWS V14.01,2013-06-14 02:26:00,
2013-06-13 20:27:00,49.8,29.9,29.97,West,273,6.3,6.3,46,0.00,,---,0.08,VWS V14.01,2013-06-14 02:27:00,
2013-06-13 20:30:00,49.8,28.8,29.97,WNW,289,5.8,5.8,44,0.00,,---,0.08,VWS V14.01,2013-06-14 02:30:00,
2013-06-13 20:31:00,49.6,28.1,29.97,WNW,293,3.1,5.8,43,0.00,,---,0.08,VWS V14.01,2013-06-14 02:31:00,
2013-06-13 20:32:00,49.6,28.6,29.97,West,270,3.1,5.8,44,0.00,,---,0.08,VWS V14.01,2013-06-14 02:32:00,
2013-06-13 20:36:00,49.5,29.6,30.00,WSW,241,3.6,5.8,46,0.00,,---,0.08,VWS V14.01,2013-06-14 02:36:00,
2013-06-13 20:37:00,49.3,28.9,30.00,WSW,239,2.7,5.8,45,0.00,,---,0.08,VWS V14.01,2013-06-14 02:37:00,
2013-06-13 20:41:00,49.1,28.7,30.00,South,190,7.2,7.6,45,0.00,,---,0.08,VWS V14.01,2013-06-14 02:41:00,
2013-06-13 20:42:00,49.1,28.7,30.00,SSW,204,4.0,7.6,45,0.00,,---,0.08,VWS V14.01,2013-06-14 02:42:00,
2013-06-13 20:46:00,48.9,29.6,30.00,SW,215,3.1,4.0,47,0.00,,---,0.08,VWS V14.01,2013-06-14 02:46:00,
2013-06-13 20:47:00,48.9,29.6,30.00,SW,216,3.6,4.0,47,0.00,,---,0.08,VWS V14.01,2013-06-14 02:47:00,
2013-06-13 20:51:00,48.7,29.4,30.00,SSW,213,5.8,9.6,47,0.00,,---,0.08,VWS V14.01,2013-06-14 02:51:00,
2013-06-13 20:52:00,48.7,29.4,30.00,SSW,197,4.0,9.6,47,0.00,,---,0.08,VWS V14.01,2013-06-14 02:52:00,
2013-06-13 20:56:00,48.6,29.8,30.00,SSW,205,5.4,9.6,48,0.00,,---,0.08,VWS V14.01,2013-06-14 02:56:00,
2013-06-13 20:57:00,48.6,29.8,30.00,SSW,200,5.8,9.6,48,0.00,,---,0.08,VWS V14.01,2013-06-14 02:57:00,
2013-06-13 21:01:00,48.4,29.1,30.00,SSW,193,6.3,8.1,47,0.00,,---,0.08,VWS V14.01,2013-06-14 03:01:00,
2013-06-13 21:02:00,48.4,29.1,30.00,South,183,3.1,8.1,47,0.00,,---,0.08,VWS V14.01,2013-06-14 03:02:00,
2013-06-13 21:06:00,48.2,29.5,30.00,East,95,0.0,8.1,48,0.00,,---,0.08,VWS V14.01,2013-06-14 03:06:00,
2013-06-13 21:07:00,48.2,29.5,30.00,East,95,0.0,8.1,48,0.00,,---,0.08,VWS V14.01,2013-06-14 03:07:00,
2013-06-13 21:08:00,48.0,29.8,30.00,East,95,0.0,8.1,49,0.00,,---,0.08,VWS V14.01,2013-06-14 03:08:00,
2013-06-13 21:12:00,47.8,29.1,30.00,ENE,61,0.0,8.1,48,0.00,,---,0.08,VWS V14.01,2013-06-14 03:12:00,
2013-06-13 21:13:00,47.8,29.1,30.00,ENE,61,0.0,8.1,48,0.00,,---,0.08,VWS V14.01,2013-06-14 03:13:00,
2013-06-13 21:17:00,47.8,29.1,30.00,SSW,197,0.0,3.1,48,0.00,,---,0.08,VWS V14.01,2013-06-14 03:17:00,
2013-06-13 21:18:00,47.8,29.1,30.00,SSW,197,2.2,3.1,48,0.00,,---,0.08,VWS V14.01,2013-06-14 03:18:00,
2013-06-13 21:22:00,48.0,28.8,30.00,SW,226,3.6,3.6,47,0.00,,---,0.08,VWS V14.01,2013-06-14 03:22:00,
2013-06-13 21:23:00,48.0,28.8,30.00,SW,223,3.1,3.6,47,0.00,,---,0.08,VWS V14.01,2013-06-14 03:23:00,
2013-06-13 21:27:00,48.0,28.8,30.00,SSW,192,4.0,4.0,47,0.00,,---,0.08,VWS V14.01,2013-06-14 03:27:00,
2013-06-13 21:28:00,48.0,28.2,30.00,SSW,192,3.1,4.0,46,0.00,,---,0.08,VWS V14.01,2013-06-14 03:28:00,
2013-06-13 21:32:00,48.2,28.9,30.00,SSW,204,3.6,4.0,47,0.00,,---,0.08,VWS V14.01,2013-06-14 03:32:00,
2013-06-13 21:33:00,48.2,28.9,30.00,SSW,203,4.0,4.0,47,0.00,,---,0.08,VWS V14.01,2013-06-14 03:33:00,
2013-06-13 21:37:00,48.0,28.2,30.00,South,189,4.0,5.4,46,0.00,,---,0.08,VWS V14.01,2013-06-14 03:37:00,
2013-06-13 21:38:00,48.0,28.8,30.00,South,189,3.6,5.4,47,0.00,,---,0.08,VWS V14.01,2013-06-14 03:38:00,
2013-06-13 21:42:00,48.0,28.8,30.00,SSW,197,4.5,5.4,47,0.00,,---,0.08,VWS V14.01,2013-06-14 03:42:00,
2013-06-13 21:43:00,47.8,28.6,30.00,SSW,195,4.9,5.4,47,0.00,,---,0.08,VWS V14.01,2013-06-14 03:43:00,
2013-06-13 21:44:00,47.8,28.6,30.00,SSW,198,4.9,5.4,47,0.00,,---,0.08,VWS V14.01,2013-06-14 03:44:00,
2013-06-13 21:45:00,47.8,28.6,30.00,SSW,195,5.4,5.4,47,0.00,,---,0.08,VWS V14.01,2013-06-14 03:45:00,
2013-06-13 21:47:00,47.8,28.6,30.00,SSW,202,3.6,5.4,47,0.00,,---,0.08,VWS V14.01,2013-06-14 03:47:00,
2013-06-13 21:48:00,47.8,29.1,30.00,SSW,202,3.6,5.4,48,0.00,,---,0.08,VWS V14.01,2013-06-14 03:48:00,
2013-06-13 21:49:00,47.8,29.1,30.00,SSW,202,3.1,5.4,48,0.00,,---,0.08,VWS V14.01,2013-06-14 03:49:00,
2013-06-13 21:50:00,47.7,29.0,30.00,SSW,202,4.0,5.4,48,0.00,,---,0.08,VWS V14.01,2013-06-14 03:50:00,
2013-06-13 21:52:00,47.7,28.4,30.00,SSW,202,3.1,5.4,47,0.00,,---,0.08,VWS V14.01,2013-06-14 03:52:00,
2013-06-13 21:53:00,47.7,28.4,30.00,SSW,202,3.1,5.4,47,0.00,,---,0.08,VWS V14.01,2013-06-14 03:53:00,
2013-06-13 21:54:00,47.7,28.4,30.00,SSW,202,3.1,5.4,47,0.00,,---,0.08,VWS V14.01,2013-06-14 03:54:00,
2013-06-13 21:55:00,47.7,28.4,30.00,SSW,202,2.7,5.4,47,0.00,,---,0.08,VWS V14.01,2013-06-14 03:55:00,
2013-06-13 21:58:00,47.7,28.4,30.00,SSW,201,2.2,5.4,47,0.00,,---,0.08,VWS V14.01,2013-06-14 03:58:00,
2013-06-13 21:59:00,47.7,29.0,30.00,South,191,2.7,5.4,48,0.00,,---,0.08,VWS V14.01,2013-06-14 03:59:00,
2013-06-13 22:00:00,47.7,29.0,30.00,SSW,198,4.0,4.0,48,0.00,,---,0.08,VWS V14.01,2013-06-14 04:00:00,
2013-06-13 22:01:00,47.7,29.0,30.00,SSW,198,2.2,4.0,48,0.00,,---,0.08,VWS V14.01,2013-06-14 04:01:00,
2013-06-13 22:06:00,47.5,29.3,30.00,SSW,198,4.0,4.0,49,0.00,,---,0.08,VWS V14.01,2013-06-14 04:06:00,
2013-06-13 22:11:00,47.3,29.1,30.00,SSW,204,4.9,5.4,49,0.00,,---,0.08,VWS V14.01,2013-06-14 04:11:00,
2013-06-13 22:16:00,47.5,28.3,30.00,SSW,205,3.6,5.4,47,0.00,,---,0.08,VWS V14.01,2013-06-14 04:16:00,
2013-06-13 22:21:00,47.7,27.9,30.00,South,186,5.4,5.8,46,0.00,,---,0.08,VWS V14.01,2013-06-14 04:21:00,
2013-06-13 22:26:00,48.0,27.7,30.00,SSW,202,3.1,6.3,45,0.00,,---,0.08,VWS V14.01,2013-06-14 04:26:00,
2013-06-13 22:27:00,48.0,27.2,30.00,SSW,205,4.0,6.3,44,0.00,,---,0.08,VWS V14.01,2013-06-14 04:27:00,
2013-06-13 22:31:00,48.2,26.8,30.00,SSW,200,4.0,5.8,43,0.00,,---,0.08,VWS V14.01,2013-06-14 04:31:00,
2013-06-13 22:32:00,48.2,26.8,30.00,South,191,4.0,5.8,43,0.00,,---,0.08,VWS V14.01,2013-06-14 04:32:00,
2013-06-13 22:37:00,48.4,26.4,30.00,SSW,207,4.9,5.8,42,0.00,,---,0.08,VWS V14.01,2013-06-14 04:37:00,
2013-06-13 22:42:00,48.4,26.9,30.00,SW,225,5.8,6.3,43,0.00,,---,0.08,VWS V14.01,2013-06-14 04:42:00,
2013-06-13 22:43:00,48.4,26.9,30.00,SSW,207,6.3,6.3,43,0.00,,---,0.08,VWS V14.01,2013-06-14 04:43:00,
2013-06-13 22:47:00,48.4,28.0,30.00,SSW,206,0.0,3.1,45,0.00,,---,0.08,VWS V14.01,2013-06-14 04:47:00,
2013-06-13 22:48:00,48.4,28.0,30.00,SSW,206,2.7,3.1,45,0.00,,---,0.08,VWS V14.01,2013-06-14 04:48:00,
2013-06-13 22:52:00,48.2,27.3,30.00,SSW,205,3.1,5.4,44,0.00,,---,0.08,VWS V14.01,2013-06-14 04:52:00,
2013-06-13 22:53:00,48.2,27.3,30.00,SW,219,6.3,7.6,44,0.00,,---,0.08,VWS V14.01,2013-06-14 04:53:00,
2013-06-13 22:57:00,48.0,27.2,30.00,SSW,202,4.9,8.3,44,0.00,,---,0.08,VWS V14.01,2013-06-14 04:57:00,
2013-06-13 22:58:00,48.0,27.2,30.00,SSW,202,4.0,8.3,44,0.00,,---,0.08,VWS V14.01,2013-06-14 04:58:00,
2013-06-13 22:59:00,48.0,27.2,30.00,SSW,209,5.4,8.3,44,0.00,,---,0.08,VWS V14.01,2013-06-14 04:59:00,
2013-06-13 23:03:00,48.0,27.2,30.00,SSW,196,5.8,5.8,44,0.00,,---,0.08,VWS V14.01,2013-06-14 05:03:00,
2013-06-13 23:04:00,48.0,27.2,30.00,South,190,3.1,5.8,44,0.00,,---,0.08,VWS V14.01,2013-06-14 05:04:00,
2013-06-13 23:08:00,48.0,27.7,30.00,SSW,204,5.8,6.3,45,0.00,,---,0.08,VWS V14.01,2013-06-14 05:08:00,
2013-06-13 23:09:00,48.0,27.7,30.00,SSW,194,4.0,6.3,45,0.00,,---,0.08,VWS V14.01,2013-06-14 05:09:00,
2013-06-13 23:13:00,47.8,28.1,30.00,South,181,4.9,6.3,46,0.00,,---,0.08,VWS V14.01,2013-06-14 05:13:00,
2013-06-13 23:14:00,47.7,27.9,30.00,SSW,202,4.0,6.3,46,0.00,,---,0.08,VWS V14.01,2013-06-14 05:14:00,
2013-06-13 23:18:00,47.3,28.1,30.00,SSW,192,4.0,4.9,47,0.00,,---,0.08,VWS V14.01,2013-06-14 05:18:00,
2013-06-13 23:19:00,47.3,28.1,30.00,South,184,4.0,5.8,47,0.00,,---,0.08,VWS V14.01,2013-06-14 05:19:00,
2013-06-13 23:23:00,47.1,28.5,30.00,South,183,4.0,5.8,48,0.00,,---,0.08,VWS V14.01,2013-06-14 05:23:00,
2013-06-13 23:24:00,47.1,28.5,30.00,South,191,4.5,5.8,48,0.00,,---,0.08,VWS V14.01,2013-06-14 05:24:00,
2013-06-13 23:29:00,46.9,28.3,30.00,South,188,2.7,5.8,48,0.00,,---,0.08,VWS V14.01,2013-06-14 05:29:00,
2013-06-13 23:34:00,46.6,28.5,30.03,South,182,3.1,4.0,49,0.00,,---,0.08,VWS V14.01,2013-06-14 05:34:00,
2013-06-13 23:35:00,46.6,29.0,30.03,South,181,2.7,4.0,50,0.00,,---,0.08,VWS V14.01,2013-06-14 05:35:00,
2013-06-13 23:36:00,46.6,29.0,30.03,South,187,3.1,4.0,50,0.00,,---,0.08,VWS V14.01,2013-06-14 05:36:00,
2013-06-13 23:39:00,46.4,28.8,30.03,South,182,2.7,4.0,50,0.00,,---,0.08,VWS V14.01,2013-06-14 05:39:00,
2013-06-13 23:40:00,46.4,29.3,30.03,South,185,5.4,5.4,51,0.00,,---,0.08,VWS V14.01,2013-06-14 05:40:00,
2013-06-13 23:41:00,46.2,29.1,30.03,South,185,4.0,5.4,51,0.00,,---,0.08,VWS V14.01,2013-06-14 05:41:00,
2013-06-13 23:44:00,46.2,29.6,30.03,SSW,193,3.6,5.4,52,0.00,,---,0.08,VWS V14.01,2013-06-14 05:44:00,
2013-06-13 23:45:00,46.2,29.6,30.03,SSW,196,3.6,5.4,52,0.00,,---,0.08,VWS V14.01,2013-06-14 05:45:00,
2013-06-13 23:46:00,46.2,29.1,30.03,SSW,198,5.4,5.4,51,0.00,,---,0.08,VWS V14.01,2013-06-14 05:46:00,
2013-06-13 23:50:00,46.0,28.9,30.00,SSW,192,4.5,5.8,51,0.00,,---,0.08,VWS V14.01,2013-06-14 05:50:00,
2013-06-13 23:51:00,46.0,28.9,30.00,SSW,196,4.0,5.8,51,0.00,,---,0.08,VWS V14.01,2013-06-14 05:51:00,
2013-06-13 23:55:00,46.0,28.5,30.00,SSE,155,3.6,5.8,50,0.00,,---,0.08,VWS V14.01,2013-06-14 05:55:00,
2013-06-13 23:56:00,46.0,28.9,30.00,SSW,206,4.9,5.8,51,0.00,,---,0.08,VWS V14.01,2013-06-14 05:56:00,